<?xml version="1.0" encoding="UTF-8" standalone="no" ?>
<gpx xmlns="http://www.topografix.com/GPX/1/1" xmlns:xsi="http://www.w3.org/2001/XMLSchema-instance" xsi:schemaLocation="http://www.topografix.com/GPX/1/1 http://www.topografix.com/GPX/1/1/gpx.xsd" version="1.1" creator="VisuGPX - https://www.visugpx.com">
  <metadata>
    <name>Sortie Test roller Hybrides</name>
    <desc><![CDATA[Sortie test et réglages à Amiens sur le chemin de halage ]]></desc>
  </metadata>
  <trk>
    <name><![CDATA[Essai hybrides amiens ]]></name>
    <desc><![CDATA[(null)]]></desc>
    <trkseg>
      <trkpt lat="49.90138" lon="2.3132">
        <ele>43.780441</ele>
        <time>2013-06-16T19:05:25Z</time>
      </trkpt>
      <trkpt lat="49.90135" lon="2.3132">
        <ele>44</ele>
        <time>2013-06-16T19:05:26Z</time>
      </trkpt>
      <trkpt lat="49.90136" lon="2.31307">
        <ele>45</ele>
        <time>2013-06-16T19:05:29Z</time>
      </trkpt>
      <trkpt lat="49.90133" lon="2.31315">
        <ele>46</ele>
        <time>2013-06-16T19:05:30Z</time>
      </trkpt>
      <trkpt lat="49.90143" lon="2.3132">
        <ele>47</ele>
        <time>2013-06-16T19:05:36Z</time>
      </trkpt>
      <trkpt lat="49.90135" lon="2.31294">
        <ele>47</ele>
        <time>2013-06-16T19:05:37Z</time>
      </trkpt>
      <trkpt lat="49.9013" lon="2.31307">
        <ele>42</ele>
        <time>2013-06-16T19:05:55Z</time>
      </trkpt>
      <trkpt lat="49.90123" lon="2.31316">
        <ele>40</ele>
        <time>2013-06-16T19:06:01Z</time>
      </trkpt>
      <trkpt lat="49.90113" lon="2.31316">
        <ele>40</ele>
        <time>2013-06-16T19:06:06Z</time>
      </trkpt>
      <trkpt lat="49.90105" lon="2.31324">
        <ele>39</ele>
        <time>2013-06-16T19:06:10Z</time>
      </trkpt>
      <trkpt lat="49.90102" lon="2.31338">
        <ele>38</ele>
        <time>2013-06-16T19:06:13Z</time>
      </trkpt>
      <trkpt lat="49.90097" lon="2.31354">
        <ele>36</ele>
        <time>2013-06-16T19:06:17Z</time>
      </trkpt>
      <trkpt lat="49.90091" lon="2.31367">
        <ele>35</ele>
        <time>2013-06-16T19:06:21Z</time>
      </trkpt>
      <trkpt lat="49.9008" lon="2.31364">
        <ele>35</ele>
        <time>2013-06-16T19:06:22Z</time>
      </trkpt>
      <trkpt lat="49.90069" lon="2.31357">
        <ele>36</ele>
        <time>2013-06-16T19:06:25Z</time>
      </trkpt>
      <trkpt lat="49.9006" lon="2.31351">
        <ele>37</ele>
        <time>2013-06-16T19:06:27Z</time>
      </trkpt>
      <trkpt lat="49.90051" lon="2.31349">
        <ele>38</ele>
        <time>2013-06-16T19:06:29Z</time>
      </trkpt>
      <trkpt lat="49.90042" lon="2.31344">
        <ele>39</ele>
        <time>2013-06-16T19:06:31Z</time>
      </trkpt>
      <trkpt lat="49.90029" lon="2.31344">
        <ele>40</ele>
        <time>2013-06-16T19:06:34Z</time>
      </trkpt>
      <trkpt lat="49.90017" lon="2.31339">
        <ele>41</ele>
        <time>2013-06-16T19:06:37Z</time>
      </trkpt>
      <trkpt lat="49.90003" lon="2.31327">
        <ele>42</ele>
        <time>2013-06-16T19:06:40Z</time>
      </trkpt>
      <trkpt lat="49.89995" lon="2.31321">
        <ele>44</ele>
        <time>2013-06-16T19:06:42Z</time>
      </trkpt>
      <trkpt lat="49.89985" lon="2.31308">
        <ele>45</ele>
        <time>2013-06-16T19:06:46Z</time>
      </trkpt>
      <trkpt lat="49.89976" lon="2.313">
        <ele>46</ele>
        <time>2013-06-16T19:06:48Z</time>
      </trkpt>
      <trkpt lat="49.89967" lon="2.31294">
        <ele>47</ele>
        <time>2013-06-16T19:06:50Z</time>
      </trkpt>
      <trkpt lat="49.89956" lon="2.31287">
        <ele>48</ele>
        <time>2013-06-16T19:06:52Z</time>
      </trkpt>
      <trkpt lat="49.89946" lon="2.31281">
        <ele>48</ele>
        <time>2013-06-16T19:06:53Z</time>
      </trkpt>
      <trkpt lat="49.89937" lon="2.31269">
        <ele>48</ele>
        <time>2013-06-16T19:06:55Z</time>
      </trkpt>
      <trkpt lat="49.89927" lon="2.3126">
        <ele>47</ele>
        <time>2013-06-16T19:06:57Z</time>
      </trkpt>
      <trkpt lat="49.89919" lon="2.31254">
        <ele>47</ele>
        <time>2013-06-16T19:06:59Z</time>
      </trkpt>
      <trkpt lat="49.8991" lon="2.31245">
        <ele>47</ele>
        <time>2013-06-16T19:07:02Z</time>
      </trkpt>
      <trkpt lat="49.89899" lon="2.31236">
        <ele>46</ele>
        <time>2013-06-16T19:07:05Z</time>
      </trkpt>
      <trkpt lat="49.89891" lon="2.31228">
        <ele>46</ele>
        <time>2013-06-16T19:07:09Z</time>
      </trkpt>
      <trkpt lat="49.89881" lon="2.31221">
        <ele>46</ele>
        <time>2013-06-16T19:07:13Z</time>
      </trkpt>
      <trkpt lat="49.89872" lon="2.31215">
        <ele>46</ele>
        <time>2013-06-16T19:07:16Z</time>
      </trkpt>
      <trkpt lat="49.89863" lon="2.31208">
        <ele>46</ele>
        <time>2013-06-16T19:07:20Z</time>
      </trkpt>
      <trkpt lat="49.89853" lon="2.31199">
        <ele>45</ele>
        <time>2013-06-16T19:07:24Z</time>
      </trkpt>
      <trkpt lat="49.89843" lon="2.31193">
        <ele>45</ele>
        <time>2013-06-16T19:07:27Z</time>
      </trkpt>
      <trkpt lat="49.89835" lon="2.31187">
        <ele>45</ele>
        <time>2013-06-16T19:07:31Z</time>
      </trkpt>
      <trkpt lat="49.89826" lon="2.31179">
        <ele>45</ele>
        <time>2013-06-16T19:07:34Z</time>
      </trkpt>
      <trkpt lat="49.89818" lon="2.31173">
        <ele>44</ele>
        <time>2013-06-16T19:07:37Z</time>
      </trkpt>
      <trkpt lat="49.89808" lon="2.31166">
        <ele>44</ele>
        <time>2013-06-16T19:07:40Z</time>
      </trkpt>
      <trkpt lat="49.89799" lon="2.31159">
        <ele>44</ele>
        <time>2013-06-16T19:07:42Z</time>
      </trkpt>
      <trkpt lat="49.89789" lon="2.31153">
        <ele>44</ele>
        <time>2013-06-16T19:07:45Z</time>
      </trkpt>
      <trkpt lat="49.89779" lon="2.31146">
        <ele>44</ele>
        <time>2013-06-16T19:07:48Z</time>
      </trkpt>
      <trkpt lat="49.89768" lon="2.31139">
        <ele>43</ele>
        <time>2013-06-16T19:07:52Z</time>
      </trkpt>
      <trkpt lat="49.89759" lon="2.31133">
        <ele>43</ele>
        <time>2013-06-16T19:07:56Z</time>
      </trkpt>
      <trkpt lat="49.8975" lon="2.31127">
        <ele>42</ele>
        <time>2013-06-16T19:07:59Z</time>
      </trkpt>
      <trkpt lat="49.89738" lon="2.3112">
        <ele>42</ele>
        <time>2013-06-16T19:08:02Z</time>
      </trkpt>
      <trkpt lat="49.89728" lon="2.3111">
        <ele>41</ele>
        <time>2013-06-16T19:08:05Z</time>
      </trkpt>
      <trkpt lat="49.89716" lon="2.31101">
        <ele>41</ele>
        <time>2013-06-16T19:08:08Z</time>
      </trkpt>
      <trkpt lat="49.89705" lon="2.31093">
        <ele>41</ele>
        <time>2013-06-16T19:08:11Z</time>
      </trkpt>
      <trkpt lat="49.89694" lon="2.31085">
        <ele>41</ele>
        <time>2013-06-16T19:08:14Z</time>
      </trkpt>
      <trkpt lat="49.89682" lon="2.31079">
        <ele>41</ele>
        <time>2013-06-16T19:08:17Z</time>
      </trkpt>
      <trkpt lat="49.89671" lon="2.31074">
        <ele>41</ele>
        <time>2013-06-16T19:08:20Z</time>
      </trkpt>
      <trkpt lat="49.89662" lon="2.31067">
        <ele>42</ele>
        <time>2013-06-16T19:08:22Z</time>
      </trkpt>
      <trkpt lat="49.89643" lon="2.31049">
        <ele>42</ele>
        <time>2013-06-16T19:08:28Z</time>
      </trkpt>
      <trkpt lat="49.89631" lon="2.31042">
        <ele>42</ele>
        <time>2013-06-16T19:08:32Z</time>
      </trkpt>
      <trkpt lat="49.89622" lon="2.31035">
        <ele>42</ele>
        <time>2013-06-16T19:08:34Z</time>
      </trkpt>
      <trkpt lat="49.89613" lon="2.31028">
        <ele>42</ele>
        <time>2013-06-16T19:08:36Z</time>
      </trkpt>
      <trkpt lat="49.89605" lon="2.31022">
        <ele>42</ele>
        <time>2013-06-16T19:08:37Z</time>
      </trkpt>
      <trkpt lat="49.89593" lon="2.31013">
        <ele>42</ele>
        <time>2013-06-16T19:08:41Z</time>
      </trkpt>
      <trkpt lat="49.89585" lon="2.31006">
        <ele>42</ele>
        <time>2013-06-16T19:08:43Z</time>
      </trkpt>
      <trkpt lat="49.89577" lon="2.30999">
        <ele>42</ele>
        <time>2013-06-16T19:08:45Z</time>
      </trkpt>
      <trkpt lat="49.89568" lon="2.30994">
        <ele>42</ele>
        <time>2013-06-16T19:08:46Z</time>
      </trkpt>
      <trkpt lat="49.89556" lon="2.30988">
        <ele>42</ele>
        <time>2013-06-16T19:08:50Z</time>
      </trkpt>
      <trkpt lat="49.89545" lon="2.30983">
        <ele>42</ele>
        <time>2013-06-16T19:08:52Z</time>
      </trkpt>
      <trkpt lat="49.89538" lon="2.30973">
        <ele>41</ele>
        <time>2013-06-16T19:08:58Z</time>
      </trkpt>
      <trkpt lat="49.89541" lon="2.3096">
        <ele>39</ele>
        <time>2013-06-16T19:09:12Z</time>
      </trkpt>
      <trkpt lat="49.89534" lon="2.30971">
        <ele>37</ele>
        <time>2013-06-16T19:10:24Z</time>
      </trkpt>
      <trkpt lat="49.8953" lon="2.30991">
        <ele>35</ele>
        <time>2013-06-16T19:10:27Z</time>
      </trkpt>
      <trkpt lat="49.89526" lon="2.31005">
        <ele>33</ele>
        <time>2013-06-16T19:10:29Z</time>
      </trkpt>
      <trkpt lat="49.89523" lon="2.31019">
        <ele>31</ele>
        <time>2013-06-16T19:10:31Z</time>
      </trkpt>
      <trkpt lat="49.89517" lon="2.31033">
        <ele>30</ele>
        <time>2013-06-16T19:10:35Z</time>
      </trkpt>
      <trkpt lat="49.89512" lon="2.31045">
        <ele>30</ele>
        <time>2013-06-16T19:10:37Z</time>
      </trkpt>
      <trkpt lat="49.89508" lon="2.31061">
        <ele>30</ele>
        <time>2013-06-16T19:10:42Z</time>
      </trkpt>
      <trkpt lat="49.89504" lon="2.31078">
        <ele>31</ele>
        <time>2013-06-16T19:10:44Z</time>
      </trkpt>
      <trkpt lat="49.89501" lon="2.31096">
        <ele>31</ele>
        <time>2013-06-16T19:10:46Z</time>
      </trkpt>
      <trkpt lat="49.89497" lon="2.31112">
        <ele>31</ele>
        <time>2013-06-16T19:10:48Z</time>
      </trkpt>
      <trkpt lat="49.89496" lon="2.31128">
        <ele>31</ele>
        <time>2013-06-16T19:10:50Z</time>
      </trkpt>
      <trkpt lat="49.89495" lon="2.31146">
        <ele>31</ele>
        <time>2013-06-16T19:10:53Z</time>
      </trkpt>
      <trkpt lat="49.89495" lon="2.31163">
        <ele>31</ele>
        <time>2013-06-16T19:10:55Z</time>
      </trkpt>
      <trkpt lat="49.89494" lon="2.31179">
        <ele>31</ele>
        <time>2013-06-16T19:10:57Z</time>
      </trkpt>
      <trkpt lat="49.89493" lon="2.31195">
        <ele>31</ele>
        <time>2013-06-16T19:10:59Z</time>
      </trkpt>
      <trkpt lat="49.89492" lon="2.31212">
        <ele>31</ele>
        <time>2013-06-16T19:11:00Z</time>
      </trkpt>
      <trkpt lat="49.89491" lon="2.31228">
        <ele>31</ele>
        <time>2013-06-16T19:11:02Z</time>
      </trkpt>
      <trkpt lat="49.89489" lon="2.31245">
        <ele>31</ele>
        <time>2013-06-16T19:11:05Z</time>
      </trkpt>
      <trkpt lat="49.89482" lon="2.31258">
        <ele>31</ele>
        <time>2013-06-16T19:11:07Z</time>
      </trkpt>
      <trkpt lat="49.89478" lon="2.31273">
        <ele>31</ele>
        <time>2013-06-16T19:11:09Z</time>
      </trkpt>
      <trkpt lat="49.89476" lon="2.31287">
        <ele>32</ele>
        <time>2013-06-16T19:11:11Z</time>
      </trkpt>
      <trkpt lat="49.89471" lon="2.31306">
        <ele>33</ele>
        <time>2013-06-16T19:11:13Z</time>
      </trkpt>
      <trkpt lat="49.89467" lon="2.31319">
        <ele>33</ele>
        <time>2013-06-16T19:11:16Z</time>
      </trkpt>
      <trkpt lat="49.89463" lon="2.31332">
        <ele>33</ele>
        <time>2013-06-16T19:11:17Z</time>
      </trkpt>
      <trkpt lat="49.89459" lon="2.31345">
        <ele>34</ele>
        <time>2013-06-16T19:11:19Z</time>
      </trkpt>
      <trkpt lat="49.8945" lon="2.31367">
        <ele>34</ele>
        <time>2013-06-16T19:11:21Z</time>
      </trkpt>
      <trkpt lat="49.89444" lon="2.31384">
        <ele>34</ele>
        <time>2013-06-16T19:11:23Z</time>
      </trkpt>
      <trkpt lat="49.89446" lon="2.31405">
        <ele>34</ele>
        <time>2013-06-16T19:11:25Z</time>
      </trkpt>
      <trkpt lat="49.89444" lon="2.31422">
        <ele>34</ele>
        <time>2013-06-16T19:11:27Z</time>
      </trkpt>
      <trkpt lat="49.89443" lon="2.3144">
        <ele>34</ele>
        <time>2013-06-16T19:11:30Z</time>
      </trkpt>
      <trkpt lat="49.89442" lon="2.31458">
        <ele>34</ele>
        <time>2013-06-16T19:11:31Z</time>
      </trkpt>
      <trkpt lat="49.89442" lon="2.31476">
        <ele>34</ele>
        <time>2013-06-16T19:11:33Z</time>
      </trkpt>
      <trkpt lat="49.89441" lon="2.31494">
        <ele>34</ele>
        <time>2013-06-16T19:11:35Z</time>
      </trkpt>
      <trkpt lat="49.89441" lon="2.31512">
        <ele>33</ele>
        <time>2013-06-16T19:11:37Z</time>
      </trkpt>
      <trkpt lat="49.8944" lon="2.31529">
        <ele>32</ele>
        <time>2013-06-16T19:11:39Z</time>
      </trkpt>
      <trkpt lat="49.8944" lon="2.31546">
        <ele>32</ele>
        <time>2013-06-16T19:11:41Z</time>
      </trkpt>
      <trkpt lat="49.8944" lon="2.31562">
        <ele>32</ele>
        <time>2013-06-16T19:11:43Z</time>
      </trkpt>
      <trkpt lat="49.89443" lon="2.31582">
        <ele>31</ele>
        <time>2013-06-16T19:11:46Z</time>
      </trkpt>
      <trkpt lat="49.89443" lon="2.31597">
        <ele>31</ele>
        <time>2013-06-16T19:11:48Z</time>
      </trkpt>
      <trkpt lat="49.89441" lon="2.31613">
        <ele>31</ele>
        <time>2013-06-16T19:11:50Z</time>
      </trkpt>
      <trkpt lat="49.8944" lon="2.31629">
        <ele>30</ele>
        <time>2013-06-16T19:11:52Z</time>
      </trkpt>
      <trkpt lat="49.89439" lon="2.31644">
        <ele>29</ele>
        <time>2013-06-16T19:11:54Z</time>
      </trkpt>
      <trkpt lat="49.89435" lon="2.31659">
        <ele>28</ele>
        <time>2013-06-16T19:11:57Z</time>
      </trkpt>
      <trkpt lat="49.89433" lon="2.31678">
        <ele>28</ele>
        <time>2013-06-16T19:12:00Z</time>
      </trkpt>
      <trkpt lat="49.89432" lon="2.31692">
        <ele>28</ele>
        <time>2013-06-16T19:12:02Z</time>
      </trkpt>
      <trkpt lat="49.89426" lon="2.31712">
        <ele>27</ele>
        <time>2013-06-16T19:12:04Z</time>
      </trkpt>
      <trkpt lat="49.89427" lon="2.31727">
        <ele>26</ele>
        <time>2013-06-16T19:12:06Z</time>
      </trkpt>
      <trkpt lat="49.89423" lon="2.31746">
        <ele>26</ele>
        <time>2013-06-16T19:12:08Z</time>
      </trkpt>
      <trkpt lat="49.89419" lon="2.31761">
        <ele>26</ele>
        <time>2013-06-16T19:12:10Z</time>
      </trkpt>
      <trkpt lat="49.89412" lon="2.31775">
        <ele>26</ele>
        <time>2013-06-16T19:12:12Z</time>
      </trkpt>
      <trkpt lat="49.89408" lon="2.31792">
        <ele>26</ele>
        <time>2013-06-16T19:12:14Z</time>
      </trkpt>
      <trkpt lat="49.89405" lon="2.31808">
        <ele>26</ele>
        <time>2013-06-16T19:12:16Z</time>
      </trkpt>
      <trkpt lat="49.89404" lon="2.31824">
        <ele>26</ele>
        <time>2013-06-16T19:12:18Z</time>
      </trkpt>
      <trkpt lat="49.89403" lon="2.31839">
        <ele>26</ele>
        <time>2013-06-16T19:12:20Z</time>
      </trkpt>
      <trkpt lat="49.89403" lon="2.31855">
        <ele>26</ele>
        <time>2013-06-16T19:12:22Z</time>
      </trkpt>
      <trkpt lat="49.89408" lon="2.3187">
        <ele>27</ele>
        <time>2013-06-16T19:12:24Z</time>
      </trkpt>
      <trkpt lat="49.89411" lon="2.31884">
        <ele>27</ele>
        <time>2013-06-16T19:12:26Z</time>
      </trkpt>
      <trkpt lat="49.89412" lon="2.319">
        <ele>27</ele>
        <time>2013-06-16T19:12:28Z</time>
      </trkpt>
      <trkpt lat="49.89413" lon="2.31916">
        <ele>27</ele>
        <time>2013-06-16T19:12:31Z</time>
      </trkpt>
      <trkpt lat="49.89414" lon="2.31931">
        <ele>27</ele>
        <time>2013-06-16T19:12:32Z</time>
      </trkpt>
      <trkpt lat="49.89414" lon="2.31946">
        <ele>27</ele>
        <time>2013-06-16T19:12:34Z</time>
      </trkpt>
      <trkpt lat="49.89415" lon="2.31962">
        <ele>27</ele>
        <time>2013-06-16T19:12:36Z</time>
      </trkpt>
      <trkpt lat="49.89414" lon="2.31978">
        <ele>27</ele>
        <time>2013-06-16T19:12:38Z</time>
      </trkpt>
      <trkpt lat="49.89413" lon="2.31993">
        <ele>27</ele>
        <time>2013-06-16T19:12:40Z</time>
      </trkpt>
      <trkpt lat="49.89414" lon="2.3201">
        <ele>28</ele>
        <time>2013-06-16T19:12:43Z</time>
      </trkpt>
      <trkpt lat="49.89412" lon="2.32024">
        <ele>29</ele>
        <time>2013-06-16T19:12:45Z</time>
      </trkpt>
      <trkpt lat="49.89409" lon="2.32039">
        <ele>29</ele>
        <time>2013-06-16T19:12:47Z</time>
      </trkpt>
      <trkpt lat="49.89408" lon="2.32054">
        <ele>29</ele>
        <time>2013-06-16T19:12:49Z</time>
      </trkpt>
      <trkpt lat="49.89407" lon="2.32069">
        <ele>29</ele>
        <time>2013-06-16T19:12:51Z</time>
      </trkpt>
      <trkpt lat="49.89404" lon="2.32086">
        <ele>29</ele>
        <time>2013-06-16T19:12:53Z</time>
      </trkpt>
      <trkpt lat="49.89401" lon="2.32102">
        <ele>29</ele>
        <time>2013-06-16T19:12:56Z</time>
      </trkpt>
      <trkpt lat="49.89397" lon="2.32118">
        <ele>29</ele>
        <time>2013-06-16T19:12:58Z</time>
      </trkpt>
      <trkpt lat="49.89393" lon="2.32133">
        <ele>29</ele>
        <time>2013-06-16T19:13:00Z</time>
      </trkpt>
      <trkpt lat="49.89389" lon="2.32149">
        <ele>29</ele>
        <time>2013-06-16T19:13:01Z</time>
      </trkpt>
      <trkpt lat="49.89386" lon="2.32165">
        <ele>29</ele>
        <time>2013-06-16T19:13:03Z</time>
      </trkpt>
      <trkpt lat="49.89384" lon="2.32181">
        <ele>29</ele>
        <time>2013-06-16T19:13:06Z</time>
      </trkpt>
      <trkpt lat="49.89383" lon="2.32197">
        <ele>29</ele>
        <time>2013-06-16T19:13:08Z</time>
      </trkpt>
      <trkpt lat="49.89382" lon="2.32213">
        <ele>29</ele>
        <time>2013-06-16T19:13:09Z</time>
      </trkpt>
      <trkpt lat="49.89382" lon="2.32228">
        <ele>29</ele>
        <time>2013-06-16T19:13:12Z</time>
      </trkpt>
      <trkpt lat="49.89382" lon="2.32244">
        <ele>29</ele>
        <time>2013-06-16T19:13:14Z</time>
      </trkpt>
      <trkpt lat="49.89383" lon="2.3226">
        <ele>29</ele>
        <time>2013-06-16T19:13:16Z</time>
      </trkpt>
      <trkpt lat="49.89383" lon="2.32275">
        <ele>29</ele>
        <time>2013-06-16T19:13:17Z</time>
      </trkpt>
      <trkpt lat="49.89383" lon="2.32291">
        <ele>29</ele>
        <time>2013-06-16T19:13:19Z</time>
      </trkpt>
      <trkpt lat="49.89383" lon="2.32306">
        <ele>29</ele>
        <time>2013-06-16T19:13:22Z</time>
      </trkpt>
      <trkpt lat="49.89383" lon="2.3232">
        <ele>29</ele>
        <time>2013-06-16T19:13:24Z</time>
      </trkpt>
      <trkpt lat="49.89381" lon="2.32341">
        <ele>29</ele>
        <time>2013-06-16T19:13:26Z</time>
      </trkpt>
      <trkpt lat="49.89377" lon="2.3236">
        <ele>29</ele>
        <time>2013-06-16T19:13:30Z</time>
      </trkpt>
      <trkpt lat="49.89374" lon="2.32379">
        <ele>29</ele>
        <time>2013-06-16T19:13:33Z</time>
      </trkpt>
      <trkpt lat="49.8937" lon="2.32393">
        <ele>29</ele>
        <time>2013-06-16T19:13:35Z</time>
      </trkpt>
      <trkpt lat="49.89367" lon="2.32408">
        <ele>28</ele>
        <time>2013-06-16T19:13:37Z</time>
      </trkpt>
      <trkpt lat="49.89365" lon="2.32424">
        <ele>28</ele>
        <time>2013-06-16T19:13:38Z</time>
      </trkpt>
      <trkpt lat="49.89363" lon="2.32439">
        <ele>28</ele>
        <time>2013-06-16T19:13:40Z</time>
      </trkpt>
      <trkpt lat="49.89361" lon="2.32455">
        <ele>27</ele>
        <time>2013-06-16T19:13:45Z</time>
      </trkpt>
      <trkpt lat="49.89361" lon="2.32473">
        <ele>27</ele>
        <time>2013-06-16T19:13:54Z</time>
      </trkpt>
      <trkpt lat="49.89358" lon="2.32493">
        <ele>27</ele>
        <time>2013-06-16T19:13:57Z</time>
      </trkpt>
      <trkpt lat="49.89356" lon="2.32508">
        <ele>27</ele>
        <time>2013-06-16T19:13:59Z</time>
      </trkpt>
      <trkpt lat="49.89354" lon="2.32525">
        <ele>27</ele>
        <time>2013-06-16T19:14:01Z</time>
      </trkpt>
      <trkpt lat="49.89351" lon="2.32542">
        <ele>27</ele>
        <time>2013-06-16T19:14:03Z</time>
      </trkpt>
      <trkpt lat="49.89349" lon="2.32557">
        <ele>27</ele>
        <time>2013-06-16T19:14:05Z</time>
      </trkpt>
      <trkpt lat="49.89346" lon="2.32574">
        <ele>27</ele>
        <time>2013-06-16T19:14:07Z</time>
      </trkpt>
      <trkpt lat="49.89343" lon="2.3259">
        <ele>27</ele>
        <time>2013-06-16T19:14:09Z</time>
      </trkpt>
      <trkpt lat="49.8934" lon="2.32605">
        <ele>26</ele>
        <time>2013-06-16T19:14:11Z</time>
      </trkpt>
      <trkpt lat="49.89334" lon="2.32618">
        <ele>26</ele>
        <time>2013-06-16T19:14:13Z</time>
      </trkpt>
      <trkpt lat="49.89328" lon="2.32635">
        <ele>26</ele>
        <time>2013-06-16T19:14:16Z</time>
      </trkpt>
      <trkpt lat="49.89323" lon="2.32652">
        <ele>26</ele>
        <time>2013-06-16T19:14:19Z</time>
      </trkpt>
      <trkpt lat="49.89314" lon="2.32667">
        <ele>25</ele>
        <time>2013-06-16T19:14:22Z</time>
      </trkpt>
      <trkpt lat="49.89309" lon="2.32679">
        <ele>25</ele>
        <time>2013-06-16T19:14:24Z</time>
      </trkpt>
      <trkpt lat="49.89303" lon="2.3269">
        <ele>25</ele>
        <time>2013-06-16T19:14:26Z</time>
      </trkpt>
      <trkpt lat="49.89298" lon="2.32702">
        <ele>25</ele>
        <time>2013-06-16T19:14:28Z</time>
      </trkpt>
      <trkpt lat="49.8929" lon="2.32718">
        <ele>26</ele>
        <time>2013-06-16T19:14:31Z</time>
      </trkpt>
      <trkpt lat="49.89283" lon="2.32735">
        <ele>27</ele>
        <time>2013-06-16T19:14:35Z</time>
      </trkpt>
      <trkpt lat="49.89278" lon="2.32747">
        <ele>27</ele>
        <time>2013-06-16T19:14:36Z</time>
      </trkpt>
      <trkpt lat="49.8927" lon="2.32765">
        <ele>27</ele>
        <time>2013-06-16T19:14:39Z</time>
      </trkpt>
      <trkpt lat="49.89265" lon="2.32782">
        <ele>27</ele>
        <time>2013-06-16T19:14:42Z</time>
      </trkpt>
      <trkpt lat="49.89258" lon="2.32794">
        <ele>27</ele>
        <time>2013-06-16T19:14:44Z</time>
      </trkpt>
      <trkpt lat="49.8925" lon="2.3281">
        <ele>27</ele>
        <time>2013-06-16T19:14:47Z</time>
      </trkpt>
      <trkpt lat="49.89245" lon="2.32821">
        <ele>27</ele>
        <time>2013-06-16T19:14:50Z</time>
      </trkpt>
      <trkpt lat="49.89237" lon="2.32837">
        <ele>27</ele>
        <time>2013-06-16T19:14:53Z</time>
      </trkpt>
      <trkpt lat="49.89228" lon="2.32853">
        <ele>27</ele>
        <time>2013-06-16T19:14:55Z</time>
      </trkpt>
      <trkpt lat="49.89221" lon="2.32869">
        <ele>27</ele>
        <time>2013-06-16T19:14:58Z</time>
      </trkpt>
      <trkpt lat="49.89212" lon="2.32884">
        <ele>27</ele>
        <time>2013-06-16T19:15:02Z</time>
      </trkpt>
      <trkpt lat="49.89204" lon="2.329">
        <ele>27</ele>
        <time>2013-06-16T19:15:05Z</time>
      </trkpt>
      <trkpt lat="49.89197" lon="2.32917">
        <ele>27</ele>
        <time>2013-06-16T19:15:08Z</time>
      </trkpt>
      <trkpt lat="49.89191" lon="2.32929">
        <ele>27</ele>
        <time>2013-06-16T19:15:09Z</time>
      </trkpt>
      <trkpt lat="49.89187" lon="2.32943">
        <ele>27</ele>
        <time>2013-06-16T19:15:11Z</time>
      </trkpt>
      <trkpt lat="49.89183" lon="2.32956">
        <ele>27</ele>
        <time>2013-06-16T19:15:13Z</time>
      </trkpt>
      <trkpt lat="49.89179" lon="2.32968">
        <ele>27</ele>
        <time>2013-06-16T19:15:15Z</time>
      </trkpt>
      <trkpt lat="49.89174" lon="2.32985">
        <ele>27</ele>
        <time>2013-06-16T19:15:18Z</time>
      </trkpt>
      <trkpt lat="49.8917" lon="2.32999">
        <ele>27</ele>
        <time>2013-06-16T19:15:21Z</time>
      </trkpt>
      <trkpt lat="49.89163" lon="2.33013">
        <ele>27</ele>
        <time>2013-06-16T19:15:25Z</time>
      </trkpt>
      <trkpt lat="49.89158" lon="2.33025">
        <ele>27</ele>
        <time>2013-06-16T19:15:28Z</time>
      </trkpt>
      <trkpt lat="49.89153" lon="2.33039">
        <ele>27</ele>
        <time>2013-06-16T19:15:31Z</time>
      </trkpt>
      <trkpt lat="49.89147" lon="2.33052">
        <ele>27</ele>
        <time>2013-06-16T19:15:34Z</time>
      </trkpt>
      <trkpt lat="49.89141" lon="2.33066">
        <ele>27</ele>
        <time>2013-06-16T19:15:37Z</time>
      </trkpt>
      <trkpt lat="49.89136" lon="2.33082">
        <ele>27</ele>
        <time>2013-06-16T19:15:40Z</time>
      </trkpt>
      <trkpt lat="49.89132" lon="2.33104">
        <ele>27</ele>
        <time>2013-06-16T19:15:42Z</time>
      </trkpt>
      <trkpt lat="49.89127" lon="2.33121">
        <ele>27</ele>
        <time>2013-06-16T19:15:45Z</time>
      </trkpt>
      <trkpt lat="49.89125" lon="2.33139">
        <ele>27</ele>
        <time>2013-06-16T19:15:48Z</time>
      </trkpt>
      <trkpt lat="49.89123" lon="2.33158">
        <ele>27</ele>
        <time>2013-06-16T19:15:51Z</time>
      </trkpt>
      <trkpt lat="49.89123" lon="2.33172">
        <ele>28</ele>
        <time>2013-06-16T19:15:53Z</time>
      </trkpt>
      <trkpt lat="49.89121" lon="2.33186">
        <ele>29</ele>
        <time>2013-06-16T19:15:55Z</time>
      </trkpt>
      <trkpt lat="49.89118" lon="2.33207">
        <ele>28</ele>
        <time>2013-06-16T19:15:58Z</time>
      </trkpt>
      <trkpt lat="49.89115" lon="2.33224">
        <ele>27</ele>
        <time>2013-06-16T19:16:01Z</time>
      </trkpt>
      <trkpt lat="49.89114" lon="2.33238">
        <ele>27</ele>
        <time>2013-06-16T19:16:04Z</time>
      </trkpt>
      <trkpt lat="49.89114" lon="2.33254">
        <ele>27</ele>
        <time>2013-06-16T19:16:08Z</time>
      </trkpt>
      <trkpt lat="49.89112" lon="2.33271">
        <ele>27</ele>
        <time>2013-06-16T19:16:12Z</time>
      </trkpt>
      <trkpt lat="49.89108" lon="2.33289">
        <ele>27</ele>
        <time>2013-06-16T19:16:15Z</time>
      </trkpt>
      <trkpt lat="49.89109" lon="2.33309">
        <ele>27</ele>
        <time>2013-06-16T19:16:17Z</time>
      </trkpt>
      <trkpt lat="49.89108" lon="2.33326">
        <ele>26</ele>
        <time>2013-06-16T19:16:19Z</time>
      </trkpt>
      <trkpt lat="49.89113" lon="2.33341">
        <ele>26</ele>
        <time>2013-06-16T19:16:21Z</time>
      </trkpt>
      <trkpt lat="49.89117" lon="2.33355">
        <ele>26</ele>
        <time>2013-06-16T19:16:23Z</time>
      </trkpt>
      <trkpt lat="49.89116" lon="2.3337">
        <ele>27</ele>
        <time>2013-06-16T19:16:26Z</time>
      </trkpt>
      <trkpt lat="49.89115" lon="2.33388">
        <ele>27</ele>
        <time>2013-06-16T19:16:28Z</time>
      </trkpt>
      <trkpt lat="49.89115" lon="2.33406">
        <ele>27</ele>
        <time>2013-06-16T19:16:29Z</time>
      </trkpt>
      <trkpt lat="49.89115" lon="2.33424">
        <ele>27</ele>
        <time>2013-06-16T19:16:31Z</time>
      </trkpt>
      <trkpt lat="49.89112" lon="2.33442">
        <ele>27</ele>
        <time>2013-06-16T19:16:34Z</time>
      </trkpt>
      <trkpt lat="49.89108" lon="2.33459">
        <ele>27</ele>
        <time>2013-06-16T19:16:36Z</time>
      </trkpt>
      <trkpt lat="49.89102" lon="2.33475">
        <ele>27</ele>
        <time>2013-06-16T19:16:38Z</time>
      </trkpt>
      <trkpt lat="49.89095" lon="2.3349">
        <ele>27</ele>
        <time>2013-06-16T19:16:40Z</time>
      </trkpt>
      <trkpt lat="49.89086" lon="2.33502">
        <ele>27</ele>
        <time>2013-06-16T19:16:42Z</time>
      </trkpt>
      <trkpt lat="49.89076" lon="2.33514">
        <ele>27</ele>
        <time>2013-06-16T19:16:44Z</time>
      </trkpt>
      <trkpt lat="49.89067" lon="2.33524">
        <ele>27</ele>
        <time>2013-06-16T19:16:45Z</time>
      </trkpt>
      <trkpt lat="49.89058" lon="2.33533">
        <ele>27</ele>
        <time>2013-06-16T19:16:47Z</time>
      </trkpt>
      <trkpt lat="49.8905" lon="2.33542">
        <ele>27</ele>
        <time>2013-06-16T19:16:49Z</time>
      </trkpt>
      <trkpt lat="49.8904" lon="2.33549">
        <ele>27</ele>
        <time>2013-06-16T19:16:51Z</time>
      </trkpt>
      <trkpt lat="49.89029" lon="2.33554">
        <ele>27</ele>
        <time>2013-06-16T19:16:53Z</time>
      </trkpt>
      <trkpt lat="49.89017" lon="2.33559">
        <ele>27</ele>
        <time>2013-06-16T19:16:55Z</time>
      </trkpt>
      <trkpt lat="49.89006" lon="2.33565">
        <ele>27</ele>
        <time>2013-06-16T19:16:57Z</time>
      </trkpt>
      <trkpt lat="49.88994" lon="2.33569">
        <ele>27</ele>
        <time>2013-06-16T19:16:59Z</time>
      </trkpt>
      <trkpt lat="49.88983" lon="2.33572">
        <ele>27</ele>
        <time>2013-06-16T19:17:01Z</time>
      </trkpt>
      <trkpt lat="49.88971" lon="2.33576">
        <ele>27</ele>
        <time>2013-06-16T19:17:04Z</time>
      </trkpt>
      <trkpt lat="49.8896" lon="2.3358">
        <ele>27</ele>
        <time>2013-06-16T19:17:05Z</time>
      </trkpt>
      <trkpt lat="49.88949" lon="2.33584">
        <ele>27</ele>
        <time>2013-06-16T19:17:07Z</time>
      </trkpt>
      <trkpt lat="49.8894" lon="2.33588">
        <ele>27</ele>
        <time>2013-06-16T19:17:09Z</time>
      </trkpt>
      <trkpt lat="49.88931" lon="2.33592">
        <ele>27</ele>
        <time>2013-06-16T19:17:11Z</time>
      </trkpt>
      <trkpt lat="49.88921" lon="2.33592">
        <ele>27</ele>
        <time>2013-06-16T19:17:13Z</time>
      </trkpt>
      <trkpt lat="49.88911" lon="2.33593">
        <ele>27</ele>
        <time>2013-06-16T19:17:15Z</time>
      </trkpt>
      <trkpt lat="49.88899" lon="2.33597">
        <ele>27</ele>
        <time>2013-06-16T19:17:18Z</time>
      </trkpt>
      <trkpt lat="49.88889" lon="2.33596">
        <ele>27</ele>
        <time>2013-06-16T19:17:20Z</time>
      </trkpt>
      <trkpt lat="49.88876" lon="2.33595">
        <ele>26</ele>
        <time>2013-06-16T19:17:23Z</time>
      </trkpt>
      <trkpt lat="49.88863" lon="2.33594">
        <ele>26</ele>
        <time>2013-06-16T19:17:25Z</time>
      </trkpt>
      <trkpt lat="49.88854" lon="2.33593">
        <ele>26</ele>
        <time>2013-06-16T19:17:27Z</time>
      </trkpt>
      <trkpt lat="49.88844" lon="2.33589">
        <ele>26</ele>
        <time>2013-06-16T19:17:29Z</time>
      </trkpt>
      <trkpt lat="49.88835" lon="2.33586">
        <ele>26</ele>
        <time>2013-06-16T19:17:31Z</time>
      </trkpt>
      <trkpt lat="49.88823" lon="2.33584">
        <ele>26</ele>
        <time>2013-06-16T19:17:34Z</time>
      </trkpt>
      <trkpt lat="49.8881" lon="2.33582">
        <ele>26</ele>
        <time>2013-06-16T19:17:37Z</time>
      </trkpt>
      <trkpt lat="49.88801" lon="2.3358">
        <ele>26</ele>
        <time>2013-06-16T19:17:40Z</time>
      </trkpt>
      <trkpt lat="49.88789" lon="2.33579">
        <ele>26</ele>
        <time>2013-06-16T19:17:43Z</time>
      </trkpt>
      <trkpt lat="49.88775" lon="2.33577">
        <ele>26</ele>
        <time>2013-06-16T19:17:47Z</time>
      </trkpt>
      <trkpt lat="49.88765" lon="2.3358">
        <ele>26</ele>
        <time>2013-06-16T19:17:48Z</time>
      </trkpt>
      <trkpt lat="49.88756" lon="2.33586">
        <ele>26</ele>
        <time>2013-06-16T19:17:50Z</time>
      </trkpt>
      <trkpt lat="49.88749" lon="2.33594">
        <ele>26</ele>
        <time>2013-06-16T19:17:53Z</time>
      </trkpt>
      <trkpt lat="49.88741" lon="2.33603">
        <ele>26</ele>
        <time>2013-06-16T19:17:55Z</time>
      </trkpt>
      <trkpt lat="49.88732" lon="2.33613">
        <ele>26</ele>
        <time>2013-06-16T19:17:57Z</time>
      </trkpt>
      <trkpt lat="49.88724" lon="2.33627">
        <ele>26</ele>
        <time>2013-06-16T19:17:59Z</time>
      </trkpt>
      <trkpt lat="49.88715" lon="2.33642">
        <ele>27</ele>
        <time>2013-06-16T19:18:03Z</time>
      </trkpt>
      <trkpt lat="49.88707" lon="2.33651">
        <ele>27</ele>
        <time>2013-06-16T19:18:05Z</time>
      </trkpt>
      <trkpt lat="49.88698" lon="2.33659">
        <ele>27</ele>
        <time>2013-06-16T19:18:07Z</time>
      </trkpt>
      <trkpt lat="49.88687" lon="2.3367">
        <ele>27</ele>
        <time>2013-06-16T19:18:09Z</time>
      </trkpt>
      <trkpt lat="49.88677" lon="2.3368">
        <ele>27</ele>
        <time>2013-06-16T19:18:11Z</time>
      </trkpt>
      <trkpt lat="49.88666" lon="2.33691">
        <ele>27</ele>
        <time>2013-06-16T19:18:12Z</time>
      </trkpt>
      <trkpt lat="49.88655" lon="2.33701">
        <ele>28</ele>
        <time>2013-06-16T19:18:14Z</time>
      </trkpt>
      <trkpt lat="49.88644" lon="2.3371">
        <ele>28</ele>
        <time>2013-06-16T19:18:16Z</time>
      </trkpt>
      <trkpt lat="49.88635" lon="2.3372">
        <ele>28</ele>
        <time>2013-06-16T19:18:18Z</time>
      </trkpt>
      <trkpt lat="49.88626" lon="2.33731">
        <ele>28</ele>
        <time>2013-06-16T19:18:20Z</time>
      </trkpt>
      <trkpt lat="49.88617" lon="2.3374">
        <ele>28</ele>
        <time>2013-06-16T19:18:22Z</time>
      </trkpt>
      <trkpt lat="49.88606" lon="2.33746">
        <ele>28</ele>
        <time>2013-06-16T19:18:24Z</time>
      </trkpt>
      <trkpt lat="49.88596" lon="2.33754">
        <ele>28</ele>
        <time>2013-06-16T19:18:26Z</time>
      </trkpt>
      <trkpt lat="49.88587" lon="2.33763">
        <ele>28</ele>
        <time>2013-06-16T19:18:28Z</time>
      </trkpt>
      <trkpt lat="49.88579" lon="2.33773">
        <ele>28</ele>
        <time>2013-06-16T19:18:30Z</time>
      </trkpt>
      <trkpt lat="49.8857" lon="2.3378">
        <ele>28</ele>
        <time>2013-06-16T19:18:33Z</time>
      </trkpt>
      <trkpt lat="49.88561" lon="2.33787">
        <ele>28</ele>
        <time>2013-06-16T19:18:35Z</time>
      </trkpt>
      <trkpt lat="49.88551" lon="2.33793">
        <ele>28</ele>
        <time>2013-06-16T19:18:37Z</time>
      </trkpt>
      <trkpt lat="49.88541" lon="2.33801">
        <ele>28</ele>
        <time>2013-06-16T19:18:38Z</time>
      </trkpt>
      <trkpt lat="49.88531" lon="2.33809">
        <ele>28</ele>
        <time>2013-06-16T19:18:41Z</time>
      </trkpt>
      <trkpt lat="49.88521" lon="2.33817">
        <ele>27</ele>
        <time>2013-06-16T19:18:42Z</time>
      </trkpt>
      <trkpt lat="49.88513" lon="2.33828">
        <ele>26</ele>
        <time>2013-06-16T19:18:45Z</time>
      </trkpt>
      <trkpt lat="49.88504" lon="2.33842">
        <ele>26</ele>
        <time>2013-06-16T19:18:47Z</time>
      </trkpt>
      <trkpt lat="49.88496" lon="2.33856">
        <ele>26</ele>
        <time>2013-06-16T19:18:50Z</time>
      </trkpt>
      <trkpt lat="49.88486" lon="2.33867">
        <ele>26</ele>
        <time>2013-06-16T19:18:52Z</time>
      </trkpt>
      <trkpt lat="49.88479" lon="2.33879">
        <ele>25</ele>
        <time>2013-06-16T19:18:54Z</time>
      </trkpt>
      <trkpt lat="49.88472" lon="2.33893">
        <ele>25</ele>
        <time>2013-06-16T19:18:57Z</time>
      </trkpt>
      <trkpt lat="49.88465" lon="2.33903">
        <ele>26</ele>
        <time>2013-06-16T19:18:59Z</time>
      </trkpt>
      <trkpt lat="49.88458" lon="2.33914">
        <ele>27</ele>
        <time>2013-06-16T19:19:01Z</time>
      </trkpt>
      <trkpt lat="49.88449" lon="2.33924">
        <ele>27</ele>
        <time>2013-06-16T19:19:04Z</time>
      </trkpt>
      <trkpt lat="49.88439" lon="2.33934">
        <ele>27</ele>
        <time>2013-06-16T19:19:05Z</time>
      </trkpt>
      <trkpt lat="49.88431" lon="2.33946">
        <ele>27</ele>
        <time>2013-06-16T19:19:07Z</time>
      </trkpt>
      <trkpt lat="49.88423" lon="2.33958">
        <ele>27</ele>
        <time>2013-06-16T19:19:09Z</time>
      </trkpt>
      <trkpt lat="49.88414" lon="2.33969">
        <ele>27</ele>
        <time>2013-06-16T19:19:11Z</time>
      </trkpt>
      <trkpt lat="49.88402" lon="2.33977">
        <ele>26</ele>
        <time>2013-06-16T19:19:13Z</time>
      </trkpt>
      <trkpt lat="49.8839" lon="2.33985">
        <ele>25</ele>
        <time>2013-06-16T19:19:15Z</time>
      </trkpt>
      <trkpt lat="49.88381" lon="2.33997">
        <ele>25</ele>
        <time>2013-06-16T19:19:17Z</time>
      </trkpt>
      <trkpt lat="49.88373" lon="2.34011">
        <ele>24</ele>
        <time>2013-06-16T19:19:19Z</time>
      </trkpt>
      <trkpt lat="49.88367" lon="2.34033">
        <ele>24</ele>
        <time>2013-06-16T19:19:22Z</time>
      </trkpt>
      <trkpt lat="49.88367" lon="2.34048">
        <ele>24</ele>
        <time>2013-06-16T19:19:24Z</time>
      </trkpt>
      <trkpt lat="49.88365" lon="2.34065">
        <ele>23</ele>
        <time>2013-06-16T19:19:26Z</time>
      </trkpt>
      <trkpt lat="49.88362" lon="2.34081">
        <ele>23</ele>
        <time>2013-06-16T19:19:29Z</time>
      </trkpt>
      <trkpt lat="49.88357" lon="2.34096">
        <ele>22</ele>
        <time>2013-06-16T19:19:31Z</time>
      </trkpt>
      <trkpt lat="49.88354" lon="2.34112">
        <ele>22</ele>
        <time>2013-06-16T19:19:32Z</time>
      </trkpt>
      <trkpt lat="49.88348" lon="2.3413">
        <ele>21</ele>
        <time>2013-06-16T19:19:34Z</time>
      </trkpt>
      <trkpt lat="49.88343" lon="2.34143">
        <ele>21</ele>
        <time>2013-06-16T19:19:36Z</time>
      </trkpt>
      <trkpt lat="49.88339" lon="2.34161">
        <ele>21</ele>
        <time>2013-06-16T19:19:38Z</time>
      </trkpt>
      <trkpt lat="49.88335" lon="2.34179">
        <ele>21</ele>
        <time>2013-06-16T19:19:40Z</time>
      </trkpt>
      <trkpt lat="49.88331" lon="2.34194">
        <ele>21</ele>
        <time>2013-06-16T19:19:43Z</time>
      </trkpt>
      <trkpt lat="49.88328" lon="2.3421">
        <ele>21</ele>
        <time>2013-06-16T19:19:45Z</time>
      </trkpt>
      <trkpt lat="49.88325" lon="2.34225">
        <ele>22</ele>
        <time>2013-06-16T19:19:46Z</time>
      </trkpt>
      <trkpt lat="49.88321" lon="2.3424">
        <ele>23</ele>
        <time>2013-06-16T19:19:48Z</time>
      </trkpt>
      <trkpt lat="49.88318" lon="2.34254">
        <ele>23</ele>
        <time>2013-06-16T19:19:50Z</time>
      </trkpt>
      <trkpt lat="49.88316" lon="2.34268">
        <ele>23</ele>
        <time>2013-06-16T19:19:52Z</time>
      </trkpt>
      <trkpt lat="49.88315" lon="2.34283">
        <ele>24</ele>
        <time>2013-06-16T19:19:54Z</time>
      </trkpt>
      <trkpt lat="49.88316" lon="2.34298">
        <ele>24</ele>
        <time>2013-06-16T19:19:57Z</time>
      </trkpt>
      <trkpt lat="49.88315" lon="2.34313">
        <ele>24</ele>
        <time>2013-06-16T19:19:58Z</time>
      </trkpt>
      <trkpt lat="49.88311" lon="2.34328">
        <ele>25</ele>
        <time>2013-06-16T19:20:00Z</time>
      </trkpt>
      <trkpt lat="49.88307" lon="2.34344">
        <ele>25</ele>
        <time>2013-06-16T19:20:02Z</time>
      </trkpt>
      <trkpt lat="49.88304" lon="2.3436">
        <ele>26</ele>
        <time>2013-06-16T19:20:04Z</time>
      </trkpt>
      <trkpt lat="49.88301" lon="2.34376">
        <ele>26</ele>
        <time>2013-06-16T19:20:06Z</time>
      </trkpt>
      <trkpt lat="49.88298" lon="2.3439">
        <ele>26</ele>
        <time>2013-06-16T19:20:08Z</time>
      </trkpt>
      <trkpt lat="49.88295" lon="2.34405">
        <ele>26</ele>
        <time>2013-06-16T19:20:10Z</time>
      </trkpt>
      <trkpt lat="49.88294" lon="2.34422">
        <ele>26</ele>
        <time>2013-06-16T19:20:12Z</time>
      </trkpt>
      <trkpt lat="49.8829" lon="2.34437">
        <ele>26</ele>
        <time>2013-06-16T19:20:14Z</time>
      </trkpt>
      <trkpt lat="49.88286" lon="2.34453">
        <ele>26</ele>
        <time>2013-06-16T19:20:16Z</time>
      </trkpt>
      <trkpt lat="49.88283" lon="2.34473">
        <ele>25</ele>
        <time>2013-06-16T19:20:18Z</time>
      </trkpt>
      <trkpt lat="49.88279" lon="2.3449">
        <ele>25</ele>
        <time>2013-06-16T19:20:20Z</time>
      </trkpt>
      <trkpt lat="49.88279" lon="2.34509">
        <ele>24</ele>
        <time>2013-06-16T19:20:22Z</time>
      </trkpt>
      <trkpt lat="49.88279" lon="2.34527">
        <ele>24</ele>
        <time>2013-06-16T19:20:24Z</time>
      </trkpt>
      <trkpt lat="49.88279" lon="2.34545">
        <ele>24</ele>
        <time>2013-06-16T19:20:27Z</time>
      </trkpt>
      <trkpt lat="49.88279" lon="2.34561">
        <ele>23</ele>
        <time>2013-06-16T19:20:29Z</time>
      </trkpt>
      <trkpt lat="49.88281" lon="2.34581">
        <ele>23</ele>
        <time>2013-06-16T19:20:31Z</time>
      </trkpt>
      <trkpt lat="49.88289" lon="2.34594">
        <ele>23</ele>
        <time>2013-06-16T19:20:33Z</time>
      </trkpt>
      <trkpt lat="49.88292" lon="2.3461">
        <ele>23</ele>
        <time>2013-06-16T19:20:35Z</time>
      </trkpt>
      <trkpt lat="49.88296" lon="2.34624">
        <ele>23</ele>
        <time>2013-06-16T19:20:38Z</time>
      </trkpt>
      <trkpt lat="49.88298" lon="2.34645">
        <ele>23</ele>
        <time>2013-06-16T19:20:40Z</time>
      </trkpt>
      <trkpt lat="49.88304" lon="2.34662">
        <ele>23</ele>
        <time>2013-06-16T19:20:44Z</time>
      </trkpt>
      <trkpt lat="49.88308" lon="2.34675">
        <ele>23</ele>
        <time>2013-06-16T19:20:45Z</time>
      </trkpt>
      <trkpt lat="49.88309" lon="2.34689">
        <ele>22</ele>
        <time>2013-06-16T19:20:48Z</time>
      </trkpt>
      <trkpt lat="49.8831" lon="2.3471">
        <ele>22</ele>
        <time>2013-06-16T19:20:51Z</time>
      </trkpt>
      <trkpt lat="49.8831" lon="2.3473">
        <ele>22</ele>
        <time>2013-06-16T19:20:53Z</time>
      </trkpt>
      <trkpt lat="49.88313" lon="2.34743">
        <ele>22</ele>
        <time>2013-06-16T19:20:55Z</time>
      </trkpt>
      <trkpt lat="49.88316" lon="2.34757">
        <ele>22</ele>
        <time>2013-06-16T19:20:57Z</time>
      </trkpt>
      <trkpt lat="49.8832" lon="2.34771">
        <ele>22</ele>
        <time>2013-06-16T19:20:59Z</time>
      </trkpt>
      <trkpt lat="49.88326" lon="2.34785">
        <ele>22</ele>
        <time>2013-06-16T19:21:01Z</time>
      </trkpt>
      <trkpt lat="49.88334" lon="2.34799">
        <ele>22</ele>
        <time>2013-06-16T19:21:03Z</time>
      </trkpt>
      <trkpt lat="49.88342" lon="2.34813">
        <ele>22</ele>
        <time>2013-06-16T19:21:05Z</time>
      </trkpt>
      <trkpt lat="49.88352" lon="2.34827">
        <ele>22</ele>
        <time>2013-06-16T19:21:07Z</time>
      </trkpt>
      <trkpt lat="49.88362" lon="2.34839">
        <ele>22</ele>
        <time>2013-06-16T19:21:09Z</time>
      </trkpt>
      <trkpt lat="49.88375" lon="2.34848">
        <ele>23</ele>
        <time>2013-06-16T19:21:11Z</time>
      </trkpt>
      <trkpt lat="49.88388" lon="2.34856">
        <ele>23</ele>
        <time>2013-06-16T19:21:13Z</time>
      </trkpt>
      <trkpt lat="49.88402" lon="2.34863">
        <ele>24</ele>
        <time>2013-06-16T19:21:15Z</time>
      </trkpt>
      <trkpt lat="49.88413" lon="2.34873">
        <ele>24</ele>
        <time>2013-06-16T19:21:17Z</time>
      </trkpt>
      <trkpt lat="49.88424" lon="2.34883">
        <ele>24</ele>
        <time>2013-06-16T19:21:20Z</time>
      </trkpt>
      <trkpt lat="49.88433" lon="2.34895">
        <ele>24</ele>
        <time>2013-06-16T19:21:21Z</time>
      </trkpt>
      <trkpt lat="49.88437" lon="2.34911">
        <ele>24</ele>
        <time>2013-06-16T19:21:23Z</time>
      </trkpt>
      <trkpt lat="49.88443" lon="2.34928">
        <ele>24</ele>
        <time>2013-06-16T19:21:25Z</time>
      </trkpt>
      <trkpt lat="49.88449" lon="2.34946">
        <ele>24</ele>
        <time>2013-06-16T19:21:27Z</time>
      </trkpt>
      <trkpt lat="49.88454" lon="2.34964">
        <ele>24</ele>
        <time>2013-06-16T19:21:29Z</time>
      </trkpt>
      <trkpt lat="49.88459" lon="2.34979">
        <ele>24</ele>
        <time>2013-06-16T19:21:31Z</time>
      </trkpt>
      <trkpt lat="49.88462" lon="2.34993">
        <ele>24</ele>
        <time>2013-06-16T19:21:33Z</time>
      </trkpt>
      <trkpt lat="49.88467" lon="2.35007">
        <ele>25</ele>
        <time>2013-06-16T19:21:36Z</time>
      </trkpt>
      <trkpt lat="49.8847" lon="2.35021">
        <ele>25</ele>
        <time>2013-06-16T19:21:37Z</time>
      </trkpt>
      <trkpt lat="49.88474" lon="2.35034">
        <ele>26</ele>
        <time>2013-06-16T19:21:40Z</time>
      </trkpt>
      <trkpt lat="49.88477" lon="2.3505">
        <ele>27</ele>
        <time>2013-06-16T19:21:45Z</time>
      </trkpt>
      <trkpt lat="49.88485" lon="2.3506">
        <ele>28</ele>
        <time>2013-06-16T19:22:05Z</time>
      </trkpt>
      <trkpt lat="49.88487" lon="2.35074">
        <ele>28</ele>
        <time>2013-06-16T19:22:11Z</time>
      </trkpt>
      <trkpt lat="49.88481" lon="2.35062">
        <ele>27</ele>
        <time>2013-06-16T19:25:33Z</time>
      </trkpt>
      <trkpt lat="49.88475" lon="2.35046">
        <ele>26</ele>
        <time>2013-06-16T19:25:35Z</time>
      </trkpt>
      <trkpt lat="49.8847" lon="2.35028">
        <ele>25</ele>
        <time>2013-06-16T19:25:37Z</time>
      </trkpt>
      <trkpt lat="49.88464" lon="2.3501">
        <ele>24</ele>
        <time>2013-06-16T19:25:39Z</time>
      </trkpt>
      <trkpt lat="49.88462" lon="2.3499">
        <ele>24</ele>
        <time>2013-06-16T19:25:42Z</time>
      </trkpt>
      <trkpt lat="49.88455" lon="2.34972">
        <ele>24</ele>
        <time>2013-06-16T19:25:44Z</time>
      </trkpt>
      <trkpt lat="49.88451" lon="2.34954">
        <ele>24</ele>
        <time>2013-06-16T19:25:45Z</time>
      </trkpt>
      <trkpt lat="49.88446" lon="2.34935">
        <ele>24</ele>
        <time>2013-06-16T19:25:47Z</time>
      </trkpt>
      <trkpt lat="49.88441" lon="2.34918">
        <ele>24</ele>
        <time>2013-06-16T19:25:49Z</time>
      </trkpt>
      <trkpt lat="49.88434" lon="2.34901">
        <ele>24</ele>
        <time>2013-06-16T19:25:51Z</time>
      </trkpt>
      <trkpt lat="49.88426" lon="2.34886">
        <ele>24</ele>
        <time>2013-06-16T19:25:53Z</time>
      </trkpt>
      <trkpt lat="49.88416" lon="2.34872">
        <ele>24</ele>
        <time>2013-06-16T19:25:55Z</time>
      </trkpt>
      <trkpt lat="49.88406" lon="2.34862">
        <ele>24</ele>
        <time>2013-06-16T19:25:57Z</time>
      </trkpt>
      <trkpt lat="49.88396" lon="2.34854">
        <ele>25</ele>
        <time>2013-06-16T19:25:59Z</time>
      </trkpt>
      <trkpt lat="49.88384" lon="2.34849">
        <ele>25</ele>
        <time>2013-06-16T19:26:02Z</time>
      </trkpt>
      <trkpt lat="49.88371" lon="2.34842">
        <ele>25</ele>
        <time>2013-06-16T19:26:03Z</time>
      </trkpt>
      <trkpt lat="49.88359" lon="2.34832">
        <ele>25</ele>
        <time>2013-06-16T19:26:05Z</time>
      </trkpt>
      <trkpt lat="49.88348" lon="2.3482">
        <ele>25</ele>
        <time>2013-06-16T19:26:07Z</time>
      </trkpt>
      <trkpt lat="49.8834" lon="2.34804">
        <ele>25</ele>
        <time>2013-06-16T19:26:10Z</time>
      </trkpt>
      <trkpt lat="49.88331" lon="2.3479">
        <ele>25</ele>
        <time>2013-06-16T19:26:12Z</time>
      </trkpt>
      <trkpt lat="49.88323" lon="2.34777">
        <ele>25</ele>
        <time>2013-06-16T19:26:14Z</time>
      </trkpt>
      <trkpt lat="49.88316" lon="2.34761">
        <ele>26</ele>
        <time>2013-06-16T19:26:16Z</time>
      </trkpt>
      <trkpt lat="49.88311" lon="2.34743">
        <ele>27</ele>
        <time>2013-06-16T19:26:17Z</time>
      </trkpt>
      <trkpt lat="49.88311" lon="2.34723">
        <ele>27</ele>
        <time>2013-06-16T19:26:19Z</time>
      </trkpt>
      <trkpt lat="49.88312" lon="2.34702">
        <ele>27</ele>
        <time>2013-06-16T19:26:21Z</time>
      </trkpt>
      <trkpt lat="49.8831" lon="2.34683">
        <ele>27</ele>
        <time>2013-06-16T19:26:23Z</time>
      </trkpt>
      <trkpt lat="49.88305" lon="2.34663">
        <ele>27</ele>
        <time>2013-06-16T19:26:25Z</time>
      </trkpt>
      <trkpt lat="49.88299" lon="2.34645">
        <ele>27</ele>
        <time>2013-06-16T19:26:28Z</time>
      </trkpt>
      <trkpt lat="49.88293" lon="2.34627">
        <ele>27</ele>
        <time>2013-06-16T19:26:30Z</time>
      </trkpt>
      <trkpt lat="49.88288" lon="2.34608">
        <ele>27</ele>
        <time>2013-06-16T19:26:32Z</time>
      </trkpt>
      <trkpt lat="49.88284" lon="2.34588">
        <ele>27</ele>
        <time>2013-06-16T19:26:34Z</time>
      </trkpt>
      <trkpt lat="49.88283" lon="2.34567">
        <ele>27</ele>
        <time>2013-06-16T19:26:35Z</time>
      </trkpt>
      <trkpt lat="49.88282" lon="2.34546">
        <ele>27</ele>
        <time>2013-06-16T19:26:37Z</time>
      </trkpt>
      <trkpt lat="49.88282" lon="2.34525">
        <ele>27</ele>
        <time>2013-06-16T19:26:39Z</time>
      </trkpt>
      <trkpt lat="49.88283" lon="2.34502">
        <ele>27</ele>
        <time>2013-06-16T19:26:41Z</time>
      </trkpt>
      <trkpt lat="49.88284" lon="2.3448">
        <ele>27</ele>
        <time>2013-06-16T19:26:44Z</time>
      </trkpt>
      <trkpt lat="49.88285" lon="2.34458">
        <ele>27</ele>
        <time>2013-06-16T19:26:46Z</time>
      </trkpt>
      <trkpt lat="49.88286" lon="2.34436">
        <ele>27</ele>
        <time>2013-06-16T19:26:48Z</time>
      </trkpt>
      <trkpt lat="49.88287" lon="2.34415">
        <ele>27</ele>
        <time>2013-06-16T19:26:50Z</time>
      </trkpt>
      <trkpt lat="49.8829" lon="2.34393">
        <ele>27</ele>
        <time>2013-06-16T19:26:51Z</time>
      </trkpt>
      <trkpt lat="49.88292" lon="2.34372">
        <ele>27</ele>
        <time>2013-06-16T19:26:53Z</time>
      </trkpt>
      <trkpt lat="49.88295" lon="2.34351">
        <ele>26</ele>
        <time>2013-06-16T19:26:55Z</time>
      </trkpt>
      <trkpt lat="49.88298" lon="2.34331">
        <ele>26</ele>
        <time>2013-06-16T19:26:58Z</time>
      </trkpt>
      <trkpt lat="49.88301" lon="2.34311">
        <ele>26</ele>
        <time>2013-06-16T19:27:00Z</time>
      </trkpt>
      <trkpt lat="49.88304" lon="2.34292">
        <ele>26</ele>
        <time>2013-06-16T19:27:02Z</time>
      </trkpt>
      <trkpt lat="49.88308" lon="2.34272">
        <ele>25</ele>
        <time>2013-06-16T19:27:03Z</time>
      </trkpt>
      <trkpt lat="49.88312" lon="2.34253">
        <ele>25</ele>
        <time>2013-06-16T19:27:06Z</time>
      </trkpt>
      <trkpt lat="49.88315" lon="2.34237">
        <ele>25</ele>
        <time>2013-06-16T19:27:07Z</time>
      </trkpt>
      <trkpt lat="49.88318" lon="2.34223">
        <ele>25</ele>
        <time>2013-06-16T19:27:09Z</time>
      </trkpt>
      <trkpt lat="49.88321" lon="2.34205">
        <ele>25</ele>
        <time>2013-06-16T19:27:11Z</time>
      </trkpt>
      <trkpt lat="49.88326" lon="2.34186">
        <ele>24</ele>
        <time>2013-06-16T19:27:14Z</time>
      </trkpt>
      <trkpt lat="49.88331" lon="2.34168">
        <ele>24</ele>
        <time>2013-06-16T19:27:16Z</time>
      </trkpt>
      <trkpt lat="49.88335" lon="2.34149">
        <ele>24</ele>
        <time>2013-06-16T19:27:18Z</time>
      </trkpt>
      <trkpt lat="49.88339" lon="2.34129">
        <ele>24</ele>
        <time>2013-06-16T19:27:20Z</time>
      </trkpt>
      <trkpt lat="49.88349" lon="2.34113">
        <ele>24</ele>
        <time>2013-06-16T19:27:22Z</time>
      </trkpt>
      <trkpt lat="49.88353" lon="2.34095">
        <ele>24</ele>
        <time>2013-06-16T19:27:24Z</time>
      </trkpt>
      <trkpt lat="49.88357" lon="2.34077">
        <ele>24</ele>
        <time>2013-06-16T19:27:25Z</time>
      </trkpt>
      <trkpt lat="49.88361" lon="2.34059">
        <ele>24</ele>
        <time>2013-06-16T19:27:27Z</time>
      </trkpt>
      <trkpt lat="49.88361" lon="2.34041">
        <ele>24</ele>
        <time>2013-06-16T19:27:30Z</time>
      </trkpt>
      <trkpt lat="49.88367" lon="2.34023">
        <ele>24</ele>
        <time>2013-06-16T19:27:32Z</time>
      </trkpt>
      <trkpt lat="49.88372" lon="2.34007">
        <ele>24</ele>
        <time>2013-06-16T19:27:34Z</time>
      </trkpt>
      <trkpt lat="49.88379" lon="2.33992">
        <ele>24</ele>
        <time>2013-06-16T19:27:36Z</time>
      </trkpt>
      <trkpt lat="49.88388" lon="2.33978">
        <ele>24</ele>
        <time>2013-06-16T19:27:38Z</time>
      </trkpt>
      <trkpt lat="49.88396" lon="2.33966">
        <ele>24</ele>
        <time>2013-06-16T19:27:40Z</time>
      </trkpt>
      <trkpt lat="49.88405" lon="2.33955">
        <ele>24</ele>
        <time>2013-06-16T19:27:41Z</time>
      </trkpt>
      <trkpt lat="49.88414" lon="2.33944">
        <ele>23</ele>
        <time>2013-06-16T19:27:43Z</time>
      </trkpt>
      <trkpt lat="49.88423" lon="2.33934">
        <ele>23</ele>
        <time>2013-06-16T19:27:46Z</time>
      </trkpt>
      <trkpt lat="49.88432" lon="2.33925">
        <ele>23</ele>
        <time>2013-06-16T19:27:47Z</time>
      </trkpt>
      <trkpt lat="49.88441" lon="2.33915">
        <ele>23</ele>
        <time>2013-06-16T19:27:49Z</time>
      </trkpt>
      <trkpt lat="49.88451" lon="2.33907">
        <ele>23</ele>
        <time>2013-06-16T19:27:52Z</time>
      </trkpt>
      <trkpt lat="49.88458" lon="2.33897">
        <ele>24</ele>
        <time>2013-06-16T19:27:54Z</time>
      </trkpt>
      <trkpt lat="49.88465" lon="2.33888">
        <ele>24</ele>
        <time>2013-06-16T19:27:56Z</time>
      </trkpt>
      <trkpt lat="49.88472" lon="2.33872">
        <ele>25</ele>
        <time>2013-06-16T19:27:59Z</time>
      </trkpt>
      <trkpt lat="49.88479" lon="2.33861">
        <ele>25</ele>
        <time>2013-06-16T19:28:01Z</time>
      </trkpt>
      <trkpt lat="49.88487" lon="2.33848">
        <ele>26</ele>
        <time>2013-06-16T19:28:03Z</time>
      </trkpt>
      <trkpt lat="49.88494" lon="2.33835">
        <ele>27</ele>
        <time>2013-06-16T19:28:05Z</time>
      </trkpt>
      <trkpt lat="49.88502" lon="2.33823">
        <ele>28</ele>
        <time>2013-06-16T19:28:07Z</time>
      </trkpt>
      <trkpt lat="49.88514" lon="2.3381">
        <ele>28</ele>
        <time>2013-06-16T19:28:09Z</time>
      </trkpt>
      <trkpt lat="49.88524" lon="2.33799">
        <ele>28</ele>
        <time>2013-06-16T19:28:11Z</time>
      </trkpt>
      <trkpt lat="49.88534" lon="2.3379">
        <ele>28</ele>
        <time>2013-06-16T19:28:13Z</time>
      </trkpt>
      <trkpt lat="49.88545" lon="2.33781">
        <ele>28</ele>
        <time>2013-06-16T19:28:15Z</time>
      </trkpt>
      <trkpt lat="49.88556" lon="2.33772">
        <ele>28</ele>
        <time>2013-06-16T19:28:17Z</time>
      </trkpt>
      <trkpt lat="49.88566" lon="2.33764">
        <ele>28</ele>
        <time>2013-06-16T19:28:19Z</time>
      </trkpt>
      <trkpt lat="49.88577" lon="2.33756">
        <ele>28</ele>
        <time>2013-06-16T19:28:21Z</time>
      </trkpt>
      <trkpt lat="49.88588" lon="2.33747">
        <ele>28</ele>
        <time>2013-06-16T19:28:23Z</time>
      </trkpt>
      <trkpt lat="49.88598" lon="2.33737">
        <ele>28</ele>
        <time>2013-06-16T19:28:25Z</time>
      </trkpt>
      <trkpt lat="49.88609" lon="2.33728">
        <ele>28</ele>
        <time>2013-06-16T19:28:27Z</time>
      </trkpt>
      <trkpt lat="49.8862" lon="2.33718">
        <ele>28</ele>
        <time>2013-06-16T19:28:29Z</time>
      </trkpt>
      <trkpt lat="49.8863" lon="2.33707">
        <ele>28</ele>
        <time>2013-06-16T19:28:31Z</time>
      </trkpt>
      <trkpt lat="49.8864" lon="2.33696">
        <ele>28</ele>
        <time>2013-06-16T19:28:33Z</time>
      </trkpt>
      <trkpt lat="49.88653" lon="2.33687">
        <ele>28</ele>
        <time>2013-06-16T19:28:35Z</time>
      </trkpt>
      <trkpt lat="49.88665" lon="2.33676">
        <ele>29</ele>
        <time>2013-06-16T19:28:37Z</time>
      </trkpt>
      <trkpt lat="49.88677" lon="2.33667">
        <ele>29</ele>
        <time>2013-06-16T19:28:39Z</time>
      </trkpt>
      <trkpt lat="49.88688" lon="2.33657">
        <ele>29</ele>
        <time>2013-06-16T19:28:41Z</time>
      </trkpt>
      <trkpt lat="49.88699" lon="2.33646">
        <ele>29</ele>
        <time>2013-06-16T19:28:43Z</time>
      </trkpt>
      <trkpt lat="49.88709" lon="2.33635">
        <ele>29</ele>
        <time>2013-06-16T19:28:45Z</time>
      </trkpt>
      <trkpt lat="49.88718" lon="2.33623">
        <ele>29</ele>
        <time>2013-06-16T19:28:47Z</time>
      </trkpt>
      <trkpt lat="49.88727" lon="2.33612">
        <ele>29</ele>
        <time>2013-06-16T19:28:49Z</time>
      </trkpt>
      <trkpt lat="49.88736" lon="2.33601">
        <ele>29</ele>
        <time>2013-06-16T19:28:51Z</time>
      </trkpt>
      <trkpt lat="49.88746" lon="2.3359">
        <ele>29</ele>
        <time>2013-06-16T19:28:53Z</time>
      </trkpt>
      <trkpt lat="49.88756" lon="2.33581">
        <ele>29</ele>
        <time>2013-06-16T19:28:55Z</time>
      </trkpt>
      <trkpt lat="49.88767" lon="2.33573">
        <ele>28</ele>
        <time>2013-06-16T19:28:57Z</time>
      </trkpt>
      <trkpt lat="49.88779" lon="2.33567">
        <ele>27</ele>
        <time>2013-06-16T19:28:59Z</time>
      </trkpt>
      <trkpt lat="49.88792" lon="2.33572">
        <ele>27</ele>
        <time>2013-06-16T19:29:01Z</time>
      </trkpt>
      <trkpt lat="49.88805" lon="2.33574">
        <ele>27</ele>
        <time>2013-06-16T19:29:03Z</time>
      </trkpt>
      <trkpt lat="49.88817" lon="2.33577">
        <ele>27</ele>
        <time>2013-06-16T19:29:05Z</time>
      </trkpt>
      <trkpt lat="49.88829" lon="2.33581">
        <ele>27</ele>
        <time>2013-06-16T19:29:07Z</time>
      </trkpt>
      <trkpt lat="49.88842" lon="2.33585">
        <ele>27</ele>
        <time>2013-06-16T19:29:09Z</time>
      </trkpt>
      <trkpt lat="49.88854" lon="2.33589">
        <ele>26</ele>
        <time>2013-06-16T19:29:11Z</time>
      </trkpt>
      <trkpt lat="49.88866" lon="2.33594">
        <ele>25</ele>
        <time>2013-06-16T19:29:13Z</time>
      </trkpt>
      <trkpt lat="49.88878" lon="2.33596">
        <ele>25</ele>
        <time>2013-06-16T19:29:15Z</time>
      </trkpt>
      <trkpt lat="49.8889" lon="2.33594">
        <ele>25</ele>
        <time>2013-06-16T19:29:17Z</time>
      </trkpt>
      <trkpt lat="49.88902" lon="2.33591">
        <ele>25</ele>
        <time>2013-06-16T19:29:19Z</time>
      </trkpt>
      <trkpt lat="49.88914" lon="2.3359">
        <ele>25</ele>
        <time>2013-06-16T19:29:21Z</time>
      </trkpt>
      <trkpt lat="49.88924" lon="2.33584">
        <ele>25</ele>
        <time>2013-06-16T19:29:23Z</time>
      </trkpt>
      <trkpt lat="49.88934" lon="2.33579">
        <ele>25</ele>
        <time>2013-06-16T19:29:26Z</time>
      </trkpt>
      <trkpt lat="49.88946" lon="2.33579">
        <ele>25</ele>
        <time>2013-06-16T19:29:28Z</time>
      </trkpt>
      <trkpt lat="49.88957" lon="2.33577">
        <ele>25</ele>
        <time>2013-06-16T19:29:30Z</time>
      </trkpt>
      <trkpt lat="49.88969" lon="2.33574">
        <ele>25</ele>
        <time>2013-06-16T19:29:31Z</time>
      </trkpt>
      <trkpt lat="49.8898" lon="2.33569">
        <ele>25</ele>
        <time>2013-06-16T19:29:33Z</time>
      </trkpt>
      <trkpt lat="49.88989" lon="2.33559">
        <ele>25</ele>
        <time>2013-06-16T19:29:35Z</time>
      </trkpt>
      <trkpt lat="49.88999" lon="2.33554">
        <ele>25</ele>
        <time>2013-06-16T19:29:37Z</time>
      </trkpt>
      <trkpt lat="49.89011" lon="2.3355">
        <ele>25</ele>
        <time>2013-06-16T19:29:39Z</time>
      </trkpt>
      <trkpt lat="49.89023" lon="2.33545">
        <ele>25</ele>
        <time>2013-06-16T19:29:41Z</time>
      </trkpt>
      <trkpt lat="49.89034" lon="2.33539">
        <ele>25</ele>
        <time>2013-06-16T19:29:43Z</time>
      </trkpt>
      <trkpt lat="49.89045" lon="2.33532">
        <ele>25</ele>
        <time>2013-06-16T19:29:45Z</time>
      </trkpt>
      <trkpt lat="49.89056" lon="2.33525">
        <ele>25</ele>
        <time>2013-06-16T19:29:47Z</time>
      </trkpt>
      <trkpt lat="49.89064" lon="2.33516">
        <ele>24</ele>
        <time>2013-06-16T19:29:49Z</time>
      </trkpt>
      <trkpt lat="49.89074" lon="2.33503">
        <ele>24</ele>
        <time>2013-06-16T19:29:52Z</time>
      </trkpt>
      <trkpt lat="49.89081" lon="2.33493">
        <ele>23</ele>
        <time>2013-06-16T19:29:54Z</time>
      </trkpt>
      <trkpt lat="49.89097" lon="2.33487">
        <ele>22</ele>
        <time>2013-06-16T19:29:56Z</time>
      </trkpt>
      <trkpt lat="49.89103" lon="2.33475">
        <ele>21</ele>
        <time>2013-06-16T19:29:58Z</time>
      </trkpt>
      <trkpt lat="49.89107" lon="2.33457">
        <ele>21</ele>
        <time>2013-06-16T19:30:00Z</time>
      </trkpt>
      <trkpt lat="49.89109" lon="2.33443">
        <ele>20</ele>
        <time>2013-06-16T19:30:01Z</time>
      </trkpt>
      <trkpt lat="49.89111" lon="2.33423">
        <ele>20</ele>
        <time>2013-06-16T19:30:03Z</time>
      </trkpt>
      <trkpt lat="49.89111" lon="2.33406">
        <ele>20</ele>
        <time>2013-06-16T19:30:05Z</time>
      </trkpt>
      <trkpt lat="49.89112" lon="2.33388">
        <ele>20</ele>
        <time>2013-06-16T19:30:07Z</time>
      </trkpt>
      <trkpt lat="49.89112" lon="2.33371">
        <ele>21</ele>
        <time>2013-06-16T19:30:09Z</time>
      </trkpt>
      <trkpt lat="49.89112" lon="2.33352">
        <ele>21</ele>
        <time>2013-06-16T19:30:11Z</time>
      </trkpt>
      <trkpt lat="49.89112" lon="2.33333">
        <ele>21</ele>
        <time>2013-06-16T19:30:13Z</time>
      </trkpt>
      <trkpt lat="49.89112" lon="2.33316">
        <ele>21</ele>
        <time>2013-06-16T19:30:15Z</time>
      </trkpt>
      <trkpt lat="49.89112" lon="2.33298">
        <ele>21</ele>
        <time>2013-06-16T19:30:17Z</time>
      </trkpt>
      <trkpt lat="49.89113" lon="2.33281">
        <ele>21</ele>
        <time>2013-06-16T19:30:19Z</time>
      </trkpt>
      <trkpt lat="49.89113" lon="2.33264">
        <ele>21</ele>
        <time>2013-06-16T19:30:21Z</time>
      </trkpt>
      <trkpt lat="49.89113" lon="2.33245">
        <ele>22</ele>
        <time>2013-06-16T19:30:24Z</time>
      </trkpt>
      <trkpt lat="49.89113" lon="2.33229">
        <ele>22</ele>
        <time>2013-06-16T19:30:26Z</time>
      </trkpt>
      <trkpt lat="49.89113" lon="2.33211">
        <ele>22</ele>
        <time>2013-06-16T19:30:28Z</time>
      </trkpt>
      <trkpt lat="49.89114" lon="2.33197">
        <ele>22</ele>
        <time>2013-06-16T19:30:30Z</time>
      </trkpt>
      <trkpt lat="49.89116" lon="2.3318">
        <ele>22</ele>
        <time>2013-06-16T19:30:32Z</time>
      </trkpt>
      <trkpt lat="49.89118" lon="2.33164">
        <ele>22</ele>
        <time>2013-06-16T19:30:34Z</time>
      </trkpt>
      <trkpt lat="49.8912" lon="2.33148">
        <ele>22</ele>
        <time>2013-06-16T19:30:36Z</time>
      </trkpt>
      <trkpt lat="49.89122" lon="2.33131">
        <ele>22</ele>
        <time>2013-06-16T19:30:38Z</time>
      </trkpt>
      <trkpt lat="49.89126" lon="2.3311">
        <ele>22</ele>
        <time>2013-06-16T19:30:41Z</time>
      </trkpt>
      <trkpt lat="49.89129" lon="2.33094">
        <ele>22</ele>
        <time>2013-06-16T19:30:43Z</time>
      </trkpt>
      <trkpt lat="49.89131" lon="2.33079">
        <ele>23</ele>
        <time>2013-06-16T19:30:45Z</time>
      </trkpt>
      <trkpt lat="49.89136" lon="2.33066">
        <ele>23</ele>
        <time>2013-06-16T19:30:47Z</time>
      </trkpt>
      <trkpt lat="49.89142" lon="2.33053">
        <ele>23</ele>
        <time>2013-06-16T19:30:49Z</time>
      </trkpt>
      <trkpt lat="49.89148" lon="2.33041">
        <ele>23</ele>
        <time>2013-06-16T19:30:51Z</time>
      </trkpt>
      <trkpt lat="49.89156" lon="2.3303">
        <ele>23</ele>
        <time>2013-06-16T19:30:53Z</time>
      </trkpt>
      <trkpt lat="49.89162" lon="2.33018">
        <ele>23</ele>
        <time>2013-06-16T19:30:55Z</time>
      </trkpt>
      <trkpt lat="49.89167" lon="2.33004">
        <ele>23</ele>
        <time>2013-06-16T19:30:57Z</time>
      </trkpt>
      <trkpt lat="49.89171" lon="2.32991">
        <ele>23</ele>
        <time>2013-06-16T19:30:59Z</time>
      </trkpt>
      <trkpt lat="49.89175" lon="2.32978">
        <ele>23</ele>
        <time>2013-06-16T19:31:01Z</time>
      </trkpt>
      <trkpt lat="49.89179" lon="2.32965">
        <ele>23</ele>
        <time>2013-06-16T19:31:03Z</time>
      </trkpt>
      <trkpt lat="49.89183" lon="2.32952">
        <ele>23</ele>
        <time>2013-06-16T19:31:05Z</time>
      </trkpt>
      <trkpt lat="49.89187" lon="2.32939">
        <ele>23</ele>
        <time>2013-06-16T19:31:07Z</time>
      </trkpt>
      <trkpt lat="49.89191" lon="2.32926">
        <ele>23</ele>
        <time>2013-06-16T19:31:09Z</time>
      </trkpt>
      <trkpt lat="49.89196" lon="2.32913">
        <ele>23</ele>
        <time>2013-06-16T19:31:11Z</time>
      </trkpt>
      <trkpt lat="49.89202" lon="2.32901">
        <ele>23</ele>
        <time>2013-06-16T19:31:13Z</time>
      </trkpt>
      <trkpt lat="49.89207" lon="2.32889">
        <ele>23</ele>
        <time>2013-06-16T19:31:15Z</time>
      </trkpt>
      <trkpt lat="49.89212" lon="2.32877">
        <ele>23</ele>
        <time>2013-06-16T19:31:17Z</time>
      </trkpt>
      <trkpt lat="49.89217" lon="2.32864">
        <ele>23</ele>
        <time>2013-06-16T19:31:19Z</time>
      </trkpt>
      <trkpt lat="49.89223" lon="2.32852">
        <ele>23</ele>
        <time>2013-06-16T19:31:21Z</time>
      </trkpt>
      <trkpt lat="49.89229" lon="2.32841">
        <ele>23</ele>
        <time>2013-06-16T19:31:23Z</time>
      </trkpt>
      <trkpt lat="49.89235" lon="2.3283">
        <ele>23</ele>
        <time>2013-06-16T19:31:25Z</time>
      </trkpt>
      <trkpt lat="49.8924" lon="2.32819">
        <ele>23</ele>
        <time>2013-06-16T19:31:27Z</time>
      </trkpt>
      <trkpt lat="49.89246" lon="2.32807">
        <ele>23</ele>
        <time>2013-06-16T19:31:29Z</time>
      </trkpt>
      <trkpt lat="49.89251" lon="2.32795">
        <ele>24</ele>
        <time>2013-06-16T19:31:31Z</time>
      </trkpt>
      <trkpt lat="49.89257" lon="2.32785">
        <ele>24</ele>
        <time>2013-06-16T19:31:33Z</time>
      </trkpt>
      <trkpt lat="49.89265" lon="2.32769">
        <ele>25</ele>
        <time>2013-06-16T19:31:36Z</time>
      </trkpt>
      <trkpt lat="49.89273" lon="2.32752">
        <ele>25</ele>
        <time>2013-06-16T19:31:39Z</time>
      </trkpt>
      <trkpt lat="49.89281" lon="2.32735">
        <ele>25</ele>
        <time>2013-06-16T19:31:42Z</time>
      </trkpt>
      <trkpt lat="49.89288" lon="2.3272">
        <ele>26</ele>
        <time>2013-06-16T19:31:45Z</time>
      </trkpt>
      <trkpt lat="49.89295" lon="2.32702">
        <ele>27</ele>
        <time>2013-06-16T19:31:48Z</time>
      </trkpt>
      <trkpt lat="49.89301" lon="2.3269">
        <ele>27</ele>
        <time>2013-06-16T19:31:50Z</time>
      </trkpt>
      <trkpt lat="49.89306" lon="2.32679">
        <ele>27</ele>
        <time>2013-06-16T19:31:52Z</time>
      </trkpt>
      <trkpt lat="49.89311" lon="2.32667">
        <ele>27</ele>
        <time>2013-06-16T19:31:54Z</time>
      </trkpt>
      <trkpt lat="49.89319" lon="2.32651">
        <ele>27</ele>
        <time>2013-06-16T19:31:57Z</time>
      </trkpt>
      <trkpt lat="49.89325" lon="2.32638">
        <ele>26</ele>
        <time>2013-06-16T19:31:59Z</time>
      </trkpt>
      <trkpt lat="49.89328" lon="2.32625">
        <ele>26</ele>
        <time>2013-06-16T19:32:01Z</time>
      </trkpt>
      <trkpt lat="49.89331" lon="2.32611">
        <ele>26</ele>
        <time>2013-06-16T19:32:03Z</time>
      </trkpt>
      <trkpt lat="49.89334" lon="2.32596">
        <ele>26</ele>
        <time>2013-06-16T19:32:05Z</time>
      </trkpt>
      <trkpt lat="49.89336" lon="2.32581">
        <ele>26</ele>
        <time>2013-06-16T19:32:07Z</time>
      </trkpt>
      <trkpt lat="49.89339" lon="2.32565">
        <ele>26</ele>
        <time>2013-06-16T19:32:09Z</time>
      </trkpt>
      <trkpt lat="49.89342" lon="2.3255">
        <ele>26</ele>
        <time>2013-06-16T19:32:11Z</time>
      </trkpt>
      <trkpt lat="49.89344" lon="2.32533">
        <ele>26</ele>
        <time>2013-06-16T19:32:13Z</time>
      </trkpt>
      <trkpt lat="49.89347" lon="2.32518">
        <ele>26</ele>
        <time>2013-06-16T19:32:15Z</time>
      </trkpt>
      <trkpt lat="49.8935" lon="2.32502">
        <ele>26</ele>
        <time>2013-06-16T19:32:17Z</time>
      </trkpt>
      <trkpt lat="49.89352" lon="2.32486">
        <ele>25</ele>
        <time>2013-06-16T19:32:19Z</time>
      </trkpt>
      <trkpt lat="49.89354" lon="2.32471">
        <ele>25</ele>
        <time>2013-06-16T19:32:21Z</time>
      </trkpt>
      <trkpt lat="49.89357" lon="2.32456">
        <ele>25</ele>
        <time>2013-06-16T19:32:23Z</time>
      </trkpt>
      <trkpt lat="49.8936" lon="2.32441">
        <ele>25</ele>
        <time>2013-06-16T19:32:25Z</time>
      </trkpt>
      <trkpt lat="49.89363" lon="2.32425">
        <ele>25</ele>
        <time>2013-06-16T19:32:27Z</time>
      </trkpt>
      <trkpt lat="49.89365" lon="2.3241">
        <ele>25</ele>
        <time>2013-06-16T19:32:29Z</time>
      </trkpt>
      <trkpt lat="49.89368" lon="2.32394">
        <ele>25</ele>
        <time>2013-06-16T19:32:31Z</time>
      </trkpt>
      <trkpt lat="49.89371" lon="2.32378">
        <ele>25</ele>
        <time>2013-06-16T19:32:33Z</time>
      </trkpt>
      <trkpt lat="49.89375" lon="2.32363">
        <ele>25</ele>
        <time>2013-06-16T19:32:35Z</time>
      </trkpt>
      <trkpt lat="49.89378" lon="2.32348">
        <ele>25</ele>
        <time>2013-06-16T19:32:37Z</time>
      </trkpt>
      <trkpt lat="49.8938" lon="2.32335">
        <ele>25</ele>
        <time>2013-06-16T19:32:39Z</time>
      </trkpt>
      <trkpt lat="49.89381" lon="2.3232">
        <ele>25</ele>
        <time>2013-06-16T19:32:41Z</time>
      </trkpt>
      <trkpt lat="49.89381" lon="2.32303">
        <ele>25</ele>
        <time>2013-06-16T19:32:43Z</time>
      </trkpt>
      <trkpt lat="49.89381" lon="2.32288">
        <ele>25</ele>
        <time>2013-06-16T19:32:45Z</time>
      </trkpt>
      <trkpt lat="49.8938" lon="2.32272">
        <ele>25</ele>
        <time>2013-06-16T19:32:47Z</time>
      </trkpt>
      <trkpt lat="49.8938" lon="2.32255">
        <ele>25</ele>
        <time>2013-06-16T19:32:49Z</time>
      </trkpt>
      <trkpt lat="49.8938" lon="2.32239">
        <ele>25</ele>
        <time>2013-06-16T19:32:51Z</time>
      </trkpt>
      <trkpt lat="49.8938" lon="2.32224">
        <ele>25</ele>
        <time>2013-06-16T19:32:53Z</time>
      </trkpt>
      <trkpt lat="49.89381" lon="2.32208">
        <ele>25</ele>
        <time>2013-06-16T19:32:55Z</time>
      </trkpt>
      <trkpt lat="49.89383" lon="2.32192">
        <ele>25</ele>
        <time>2013-06-16T19:32:58Z</time>
      </trkpt>
      <trkpt lat="49.89384" lon="2.32176">
        <ele>25</ele>
        <time>2013-06-16T19:33:00Z</time>
      </trkpt>
      <trkpt lat="49.89386" lon="2.3216">
        <ele>25</ele>
        <time>2013-06-16T19:33:01Z</time>
      </trkpt>
      <trkpt lat="49.89389" lon="2.32145">
        <ele>25</ele>
        <time>2013-06-16T19:33:03Z</time>
      </trkpt>
      <trkpt lat="49.89392" lon="2.32129">
        <ele>25</ele>
        <time>2013-06-16T19:33:06Z</time>
      </trkpt>
      <trkpt lat="49.89396" lon="2.32115">
        <ele>25</ele>
        <time>2013-06-16T19:33:08Z</time>
      </trkpt>
      <trkpt lat="49.894" lon="2.321">
        <ele>25</ele>
        <time>2013-06-16T19:33:10Z</time>
      </trkpt>
      <trkpt lat="49.8941" lon="2.32088">
        <ele>25</ele>
        <time>2013-06-16T19:33:12Z</time>
      </trkpt>
      <trkpt lat="49.89413" lon="2.32071">
        <ele>25</ele>
        <time>2013-06-16T19:33:14Z</time>
      </trkpt>
      <trkpt lat="49.89415" lon="2.32057">
        <ele>25</ele>
        <time>2013-06-16T19:33:15Z</time>
      </trkpt>
      <trkpt lat="49.89416" lon="2.32041">
        <ele>25</ele>
        <time>2013-06-16T19:33:17Z</time>
      </trkpt>
      <trkpt lat="49.89412" lon="2.32023">
        <ele>25</ele>
        <time>2013-06-16T19:33:19Z</time>
      </trkpt>
      <trkpt lat="49.89414" lon="2.32007">
        <ele>25</ele>
        <time>2013-06-16T19:33:22Z</time>
      </trkpt>
      <trkpt lat="49.89414" lon="2.31991">
        <ele>25</ele>
        <time>2013-06-16T19:33:24Z</time>
      </trkpt>
      <trkpt lat="49.89414" lon="2.31976">
        <ele>25</ele>
        <time>2013-06-16T19:33:25Z</time>
      </trkpt>
      <trkpt lat="49.89414" lon="2.3196">
        <ele>25</ele>
        <time>2013-06-16T19:33:28Z</time>
      </trkpt>
      <trkpt lat="49.89412" lon="2.31945">
        <ele>25</ele>
        <time>2013-06-16T19:33:30Z</time>
      </trkpt>
      <trkpt lat="49.89411" lon="2.31929">
        <ele>25</ele>
        <time>2013-06-16T19:33:32Z</time>
      </trkpt>
      <trkpt lat="49.89409" lon="2.31914">
        <ele>25</ele>
        <time>2013-06-16T19:33:33Z</time>
      </trkpt>
      <trkpt lat="49.89408" lon="2.31899">
        <ele>25</ele>
        <time>2013-06-16T19:33:35Z</time>
      </trkpt>
      <trkpt lat="49.89407" lon="2.31884">
        <ele>25</ele>
        <time>2013-06-16T19:33:38Z</time>
      </trkpt>
      <trkpt lat="49.89405" lon="2.31869">
        <ele>25</ele>
        <time>2013-06-16T19:33:40Z</time>
      </trkpt>
      <trkpt lat="49.89404" lon="2.31854">
        <ele>25</ele>
        <time>2013-06-16T19:33:42Z</time>
      </trkpt>
      <trkpt lat="49.89404" lon="2.31838">
        <ele>25</ele>
        <time>2013-06-16T19:33:43Z</time>
      </trkpt>
      <trkpt lat="49.89404" lon="2.31822">
        <ele>25</ele>
        <time>2013-06-16T19:33:45Z</time>
      </trkpt>
      <trkpt lat="49.89405" lon="2.31807">
        <ele>26</ele>
        <time>2013-06-16T19:33:47Z</time>
      </trkpt>
      <trkpt lat="49.89407" lon="2.31791">
        <ele>26</ele>
        <time>2013-06-16T19:33:49Z</time>
      </trkpt>
      <trkpt lat="49.89411" lon="2.31777">
        <ele>26</ele>
        <time>2013-06-16T19:33:52Z</time>
      </trkpt>
      <trkpt lat="49.89415" lon="2.31763">
        <ele>26</ele>
        <time>2013-06-16T19:33:54Z</time>
      </trkpt>
      <trkpt lat="49.89419" lon="2.3175">
        <ele>26</ele>
        <time>2013-06-16T19:33:56Z</time>
      </trkpt>
      <trkpt lat="49.89423" lon="2.31736">
        <ele>26</ele>
        <time>2013-06-16T19:33:57Z</time>
      </trkpt>
      <trkpt lat="49.89426" lon="2.31717">
        <ele>26</ele>
        <time>2013-06-16T19:34:00Z</time>
      </trkpt>
      <trkpt lat="49.89429" lon="2.31697">
        <ele>26</ele>
        <time>2013-06-16T19:34:03Z</time>
      </trkpt>
      <trkpt lat="49.89429" lon="2.31683">
        <ele>26</ele>
        <time>2013-06-16T19:34:05Z</time>
      </trkpt>
      <trkpt lat="49.89431" lon="2.31668">
        <ele>26</ele>
        <time>2013-06-16T19:34:07Z</time>
      </trkpt>
      <trkpt lat="49.89431" lon="2.31651">
        <ele>26</ele>
        <time>2013-06-16T19:34:11Z</time>
      </trkpt>
      <trkpt lat="49.89431" lon="2.31633">
        <ele>26</ele>
        <time>2013-06-16T19:34:13Z</time>
      </trkpt>
      <trkpt lat="49.89434" lon="2.31612">
        <ele>25</ele>
        <time>2013-06-16T19:34:16Z</time>
      </trkpt>
      <trkpt lat="49.89434" lon="2.31596">
        <ele>25</ele>
        <time>2013-06-16T19:34:19Z</time>
      </trkpt>
      <trkpt lat="49.89435" lon="2.3158">
        <ele>25</ele>
        <time>2013-06-16T19:34:21Z</time>
      </trkpt>
      <trkpt lat="49.89434" lon="2.31565">
        <ele>25</ele>
        <time>2013-06-16T19:34:23Z</time>
      </trkpt>
      <trkpt lat="49.89434" lon="2.31549">
        <ele>25</ele>
        <time>2013-06-16T19:34:25Z</time>
      </trkpt>
      <trkpt lat="49.89435" lon="2.31533">
        <ele>25</ele>
        <time>2013-06-16T19:34:27Z</time>
      </trkpt>
      <trkpt lat="49.89435" lon="2.31517">
        <ele>25</ele>
        <time>2013-06-16T19:34:28Z</time>
      </trkpt>
      <trkpt lat="49.89435" lon="2.315">
        <ele>25</ele>
        <time>2013-06-16T19:34:30Z</time>
      </trkpt>
      <trkpt lat="49.89436" lon="2.31481">
        <ele>25</ele>
        <time>2013-06-16T19:34:32Z</time>
      </trkpt>
      <trkpt lat="49.89436" lon="2.31462">
        <ele>25</ele>
        <time>2013-06-16T19:34:35Z</time>
      </trkpt>
      <trkpt lat="49.89437" lon="2.31443">
        <ele>25</ele>
        <time>2013-06-16T19:34:37Z</time>
      </trkpt>
      <trkpt lat="49.89437" lon="2.31424">
        <ele>25</ele>
        <time>2013-06-16T19:34:39Z</time>
      </trkpt>
      <trkpt lat="49.89438" lon="2.31406">
        <ele>25</ele>
        <time>2013-06-16T19:34:41Z</time>
      </trkpt>
      <trkpt lat="49.89441" lon="2.31387">
        <ele>25</ele>
        <time>2013-06-16T19:34:43Z</time>
      </trkpt>
      <trkpt lat="49.89444" lon="2.31369">
        <ele>25</ele>
        <time>2013-06-16T19:34:44Z</time>
      </trkpt>
      <trkpt lat="49.89449" lon="2.31352">
        <ele>24</ele>
        <time>2013-06-16T19:34:46Z</time>
      </trkpt>
      <trkpt lat="49.89455" lon="2.31337">
        <ele>24</ele>
        <time>2013-06-16T19:34:48Z</time>
      </trkpt>
      <trkpt lat="49.89461" lon="2.31322">
        <ele>24</ele>
        <time>2013-06-16T19:34:50Z</time>
      </trkpt>
      <trkpt lat="49.89466" lon="2.31309">
        <ele>24</ele>
        <time>2013-06-16T19:34:52Z</time>
      </trkpt>
      <trkpt lat="49.89473" lon="2.31291">
        <ele>24</ele>
        <time>2013-06-16T19:34:55Z</time>
      </trkpt>
      <trkpt lat="49.89483" lon="2.31278">
        <ele>24</ele>
        <time>2013-06-16T19:34:58Z</time>
      </trkpt>
      <trkpt lat="49.89486" lon="2.31259">
        <ele>24</ele>
        <time>2013-06-16T19:35:00Z</time>
      </trkpt>
      <trkpt lat="49.8949" lon="2.3124">
        <ele>24</ele>
        <time>2013-06-16T19:35:02Z</time>
      </trkpt>
      <trkpt lat="49.89491" lon="2.31219">
        <ele>24</ele>
        <time>2013-06-16T19:35:03Z</time>
      </trkpt>
      <trkpt lat="49.89493" lon="2.312">
        <ele>24</ele>
        <time>2013-06-16T19:35:05Z</time>
      </trkpt>
      <trkpt lat="49.89494" lon="2.31181">
        <ele>24</ele>
        <time>2013-06-16T19:35:08Z</time>
      </trkpt>
      <trkpt lat="49.89495" lon="2.31161">
        <ele>24</ele>
        <time>2013-06-16T19:35:09Z</time>
      </trkpt>
      <trkpt lat="49.89496" lon="2.31143">
        <ele>24</ele>
        <time>2013-06-16T19:35:11Z</time>
      </trkpt>
      <trkpt lat="49.89496" lon="2.31127">
        <ele>24</ele>
        <time>2013-06-16T19:35:14Z</time>
      </trkpt>
      <trkpt lat="49.89497" lon="2.31111">
        <ele>24</ele>
        <time>2013-06-16T19:35:16Z</time>
      </trkpt>
      <trkpt lat="49.895" lon="2.31088">
        <ele>23</ele>
        <time>2013-06-16T19:35:18Z</time>
      </trkpt>
      <trkpt lat="49.895" lon="2.31069">
        <ele>23</ele>
        <time>2013-06-16T19:35:20Z</time>
      </trkpt>
      <trkpt lat="49.89504" lon="2.31055">
        <ele>23</ele>
        <time>2013-06-16T19:35:22Z</time>
      </trkpt>
      <trkpt lat="49.89508" lon="2.31041">
        <ele>23</ele>
        <time>2013-06-16T19:35:24Z</time>
      </trkpt>
      <trkpt lat="49.89514" lon="2.31025">
        <ele>23</ele>
        <time>2013-06-16T19:35:28Z</time>
      </trkpt>
      <trkpt lat="49.89521" lon="2.31015">
        <ele>24</ele>
        <time>2013-06-16T19:35:32Z</time>
      </trkpt>
      <trkpt lat="49.89528" lon="2.31004">
        <ele>25</ele>
        <time>2013-06-16T19:35:36Z</time>
      </trkpt>
      <trkpt lat="49.89534" lon="2.31014">
        <ele>26</ele>
        <time>2013-06-16T19:35:43Z</time>
      </trkpt>
      <trkpt lat="49.89543" lon="2.31021">
        <ele>27</ele>
        <time>2013-06-16T19:35:47Z</time>
      </trkpt>
      <trkpt lat="49.89551" lon="2.31026">
        <ele>28</ele>
        <time>2013-06-16T19:35:49Z</time>
      </trkpt>
      <trkpt lat="49.89561" lon="2.31031">
        <ele>29</ele>
        <time>2013-06-16T19:35:53Z</time>
      </trkpt>
      <trkpt lat="49.89572" lon="2.31037">
        <ele>30</ele>
        <time>2013-06-16T19:35:55Z</time>
      </trkpt>
      <trkpt lat="49.89582" lon="2.31044">
        <ele>31</ele>
        <time>2013-06-16T19:35:58Z</time>
      </trkpt>
      <trkpt lat="49.89593" lon="2.31052">
        <ele>32</ele>
        <time>2013-06-16T19:36:01Z</time>
      </trkpt>
      <trkpt lat="49.89604" lon="2.31059">
        <ele>32</ele>
        <time>2013-06-16T19:36:04Z</time>
      </trkpt>
      <trkpt lat="49.89614" lon="2.31069">
        <ele>32</ele>
        <time>2013-06-16T19:36:08Z</time>
      </trkpt>
      <trkpt lat="49.89623" lon="2.31079">
        <ele>32</ele>
        <time>2013-06-16T19:36:10Z</time>
      </trkpt>
      <trkpt lat="49.89633" lon="2.31084">
        <ele>32</ele>
        <time>2013-06-16T19:36:14Z</time>
      </trkpt>
      <trkpt lat="49.89644" lon="2.31091">
        <ele>32</ele>
        <time>2013-06-16T19:36:17Z</time>
      </trkpt>
      <trkpt lat="49.89655" lon="2.31098">
        <ele>32</ele>
        <time>2013-06-16T19:36:19Z</time>
      </trkpt>
      <trkpt lat="49.89665" lon="2.31105">
        <ele>32</ele>
        <time>2013-06-16T19:36:22Z</time>
      </trkpt>
      <trkpt lat="49.89676" lon="2.31113">
        <ele>33</ele>
        <time>2013-06-16T19:36:25Z</time>
      </trkpt>
      <trkpt lat="49.89686" lon="2.31119">
        <ele>33</ele>
        <time>2013-06-16T19:36:29Z</time>
      </trkpt>
      <trkpt lat="49.89697" lon="2.31128">
        <ele>33</ele>
        <time>2013-06-16T19:36:31Z</time>
      </trkpt>
      <trkpt lat="49.89707" lon="2.31137">
        <ele>33</ele>
        <time>2013-06-16T19:36:34Z</time>
      </trkpt>
      <trkpt lat="49.89718" lon="2.31145">
        <ele>33</ele>
        <time>2013-06-16T19:36:38Z</time>
      </trkpt>
      <trkpt lat="49.8973" lon="2.31154">
        <ele>33</ele>
        <time>2013-06-16T19:36:40Z</time>
      </trkpt>
      <trkpt lat="49.89741" lon="2.31162">
        <ele>33</ele>
        <time>2013-06-16T19:36:44Z</time>
      </trkpt>
      <trkpt lat="49.89751" lon="2.31169">
        <ele>34</ele>
        <time>2013-06-16T19:36:46Z</time>
      </trkpt>
      <trkpt lat="49.89761" lon="2.31177">
        <ele>35</ele>
        <time>2013-06-16T19:36:49Z</time>
      </trkpt>
      <trkpt lat="49.89772" lon="2.31184">
        <ele>35</ele>
        <time>2013-06-16T19:36:52Z</time>
      </trkpt>
      <trkpt lat="49.89783" lon="2.31191">
        <ele>35</ele>
        <time>2013-06-16T19:36:56Z</time>
      </trkpt>
      <trkpt lat="49.89793" lon="2.31199">
        <ele>34</ele>
        <time>2013-06-16T19:36:59Z</time>
      </trkpt>
      <trkpt lat="49.89804" lon="2.31209">
        <ele>34</ele>
        <time>2013-06-16T19:37:02Z</time>
      </trkpt>
      <trkpt lat="49.89815" lon="2.31219">
        <ele>34</ele>
        <time>2013-06-16T19:37:05Z</time>
      </trkpt>
      <trkpt lat="49.89826" lon="2.31227">
        <ele>34</ele>
        <time>2013-06-16T19:37:07Z</time>
      </trkpt>
      <trkpt lat="49.89837" lon="2.31236">
        <ele>34</ele>
        <time>2013-06-16T19:37:10Z</time>
      </trkpt>
      <trkpt lat="49.89848" lon="2.31246">
        <ele>34</ele>
        <time>2013-06-16T19:37:13Z</time>
      </trkpt>
      <trkpt lat="49.89858" lon="2.31257">
        <ele>35</ele>
        <time>2013-06-16T19:37:17Z</time>
      </trkpt>
      <trkpt lat="49.89869" lon="2.31267">
        <ele>36</ele>
        <time>2013-06-16T19:37:19Z</time>
      </trkpt>
      <trkpt lat="49.89881" lon="2.31274">
        <ele>36</ele>
        <time>2013-06-16T19:37:22Z</time>
      </trkpt>
      <trkpt lat="49.89893" lon="2.31279">
        <ele>37</ele>
        <time>2013-06-16T19:37:25Z</time>
      </trkpt>
      <trkpt lat="49.89906" lon="2.3128">
        <ele>37</ele>
        <time>2013-06-16T19:37:29Z</time>
      </trkpt>
      <trkpt lat="49.89919" lon="2.31286">
        <ele>38</ele>
        <time>2013-06-16T19:37:31Z</time>
      </trkpt>
      <trkpt lat="49.89931" lon="2.31292">
        <ele>39</ele>
        <time>2013-06-16T19:37:35Z</time>
      </trkpt>
      <trkpt lat="49.89943" lon="2.31299">
        <ele>39</ele>
        <time>2013-06-16T19:37:37Z</time>
      </trkpt>
      <trkpt lat="49.89953" lon="2.31307">
        <ele>39</ele>
        <time>2013-06-16T19:37:39Z</time>
      </trkpt>
      <trkpt lat="49.89962" lon="2.31314">
        <ele>40</ele>
        <time>2013-06-16T19:37:42Z</time>
      </trkpt>
      <trkpt lat="49.89971" lon="2.3132">
        <ele>40</ele>
        <time>2013-06-16T19:37:43Z</time>
      </trkpt>
      <trkpt lat="49.8998" lon="2.31326">
        <ele>40</ele>
        <time>2013-06-16T19:37:45Z</time>
      </trkpt>
      <trkpt lat="49.89989" lon="2.31331">
        <ele>40</ele>
        <time>2013-06-16T19:37:47Z</time>
      </trkpt>
      <trkpt lat="49.9" lon="2.3134">
        <ele>40</ele>
        <time>2013-06-16T19:37:50Z</time>
      </trkpt>
      <trkpt lat="49.90012" lon="2.31349">
        <ele>40</ele>
        <time>2013-06-16T19:37:53Z</time>
      </trkpt>
      <trkpt lat="49.9002" lon="2.31355">
        <ele>40</ele>
        <time>2013-06-16T19:37:55Z</time>
      </trkpt>
      <trkpt lat="49.9003" lon="2.31361">
        <ele>41</ele>
        <time>2013-06-16T19:37:57Z</time>
      </trkpt>
      <trkpt lat="49.90039" lon="2.31367">
        <ele>41</ele>
        <time>2013-06-16T19:37:59Z</time>
      </trkpt>
      <trkpt lat="49.90047" lon="2.31374">
        <ele>41</ele>
        <time>2013-06-16T19:38:01Z</time>
      </trkpt>
      <trkpt lat="49.90059" lon="2.31383">
        <ele>41</ele>
        <time>2013-06-16T19:38:05Z</time>
      </trkpt>
      <trkpt lat="49.90071" lon="2.31391">
        <ele>41</ele>
        <time>2013-06-16T19:38:07Z</time>
      </trkpt>
      <trkpt lat="49.90082" lon="2.31398">
        <ele>41</ele>
        <time>2013-06-16T19:38:10Z</time>
      </trkpt>
      <trkpt lat="49.90094" lon="2.31405">
        <ele>41</ele>
        <time>2013-06-16T19:38:13Z</time>
      </trkpt>
      <trkpt lat="49.90105" lon="2.31411">
        <ele>42</ele>
        <time>2013-06-16T19:38:16Z</time>
      </trkpt>
      <trkpt lat="49.90116" lon="2.31418">
        <ele>42</ele>
        <time>2013-06-16T19:38:20Z</time>
      </trkpt>
      <trkpt lat="49.90128" lon="2.31427">
        <ele>42</ele>
        <time>2013-06-16T19:38:22Z</time>
      </trkpt>
      <trkpt lat="49.90136" lon="2.31433">
        <ele>42</ele>
        <time>2013-06-16T19:38:24Z</time>
      </trkpt>
      <trkpt lat="49.90144" lon="2.31439">
        <ele>42</ele>
        <time>2013-06-16T19:38:27Z</time>
      </trkpt>
      <trkpt lat="49.90153" lon="2.31445">
        <ele>42</ele>
        <time>2013-06-16T19:38:29Z</time>
      </trkpt>
      <trkpt lat="49.90162" lon="2.3145">
        <ele>42</ele>
        <time>2013-06-16T19:38:31Z</time>
      </trkpt>
      <trkpt lat="49.90171" lon="2.31455">
        <ele>43</ele>
        <time>2013-06-16T19:38:33Z</time>
      </trkpt>
      <trkpt lat="49.90183" lon="2.31463">
        <ele>43</ele>
        <time>2013-06-16T19:38:35Z</time>
      </trkpt>
      <trkpt lat="49.90192" lon="2.3147">
        <ele>43</ele>
        <time>2013-06-16T19:38:37Z</time>
      </trkpt>
      <trkpt lat="49.902" lon="2.31476">
        <ele>43</ele>
        <time>2013-06-16T19:38:39Z</time>
      </trkpt>
      <trkpt lat="49.90208" lon="2.31482">
        <ele>43</ele>
        <time>2013-06-16T19:38:41Z</time>
      </trkpt>
      <trkpt lat="49.90216" lon="2.31489">
        <ele>44</ele>
        <time>2013-06-16T19:38:43Z</time>
      </trkpt>
      <trkpt lat="49.90224" lon="2.31496">
        <ele>44</ele>
        <time>2013-06-16T19:38:46Z</time>
      </trkpt>
      <trkpt lat="49.90232" lon="2.31503">
        <ele>44</ele>
        <time>2013-06-16T19:38:48Z</time>
      </trkpt>
      <trkpt lat="49.90241" lon="2.3151">
        <ele>44</ele>
        <time>2013-06-16T19:38:50Z</time>
      </trkpt>
      <trkpt lat="49.9025" lon="2.31515">
        <ele>44</ele>
        <time>2013-06-16T19:38:51Z</time>
      </trkpt>
      <trkpt lat="49.90259" lon="2.31523">
        <ele>44</ele>
        <time>2013-06-16T19:38:53Z</time>
      </trkpt>
      <trkpt lat="49.90269" lon="2.31532">
        <ele>44</ele>
        <time>2013-06-16T19:38:56Z</time>
      </trkpt>
      <trkpt lat="49.90279" lon="2.3154">
        <ele>43</ele>
        <time>2013-06-16T19:38:59Z</time>
      </trkpt>
      <trkpt lat="49.90289" lon="2.31547">
        <ele>43</ele>
        <time>2013-06-16T19:39:02Z</time>
      </trkpt>
      <trkpt lat="49.903" lon="2.31555">
        <ele>43</ele>
        <time>2013-06-16T19:39:06Z</time>
      </trkpt>
      <trkpt lat="49.90307" lon="2.31566">
        <ele>43</ele>
        <time>2013-06-16T19:39:10Z</time>
      </trkpt>
      <trkpt lat="49.90313" lon="2.31552">
        <ele>43</ele>
        <time>2013-06-16T19:39:21Z</time>
      </trkpt>
      <trkpt lat="49.90312" lon="2.31533">
        <ele>43</ele>
        <time>2013-06-16T19:39:25Z</time>
      </trkpt>
      <trkpt lat="49.90306" lon="2.3152">
        <ele>43</ele>
        <time>2013-06-16T19:39:28Z</time>
      </trkpt>
      <trkpt lat="49.90297" lon="2.31515">
        <ele>43</ele>
        <time>2013-06-16T19:39:31Z</time>
      </trkpt>
      <trkpt lat="49.90288" lon="2.31509">
        <ele>43</ele>
        <time>2013-06-16T19:39:35Z</time>
      </trkpt>
      <trkpt lat="49.90278" lon="2.31504">
        <ele>42</ele>
        <time>2013-06-16T19:39:37Z</time>
      </trkpt>
      <trkpt lat="49.90268" lon="2.31498">
        <ele>42</ele>
        <time>2013-06-16T19:39:41Z</time>
      </trkpt>
      <trkpt lat="49.90259" lon="2.31491">
        <ele>42</ele>
        <time>2013-06-16T19:39:44Z</time>
      </trkpt>
      <trkpt lat="49.90249" lon="2.31486">
        <ele>41</ele>
        <time>2013-06-16T19:39:47Z</time>
      </trkpt>
      <trkpt lat="49.90239" lon="2.31479">
        <ele>41</ele>
        <time>2013-06-16T19:39:51Z</time>
      </trkpt>
      <trkpt lat="49.9023" lon="2.31473">
        <ele>41</ele>
        <time>2013-06-16T19:39:54Z</time>
      </trkpt>
      <trkpt lat="49.9022" lon="2.31466">
        <ele>41</ele>
        <time>2013-06-16T19:39:57Z</time>
      </trkpt>
      <trkpt lat="49.9021" lon="2.31458">
        <ele>41</ele>
        <time>2013-06-16T19:40:02Z</time>
      </trkpt>
      <trkpt lat="49.90201" lon="2.3145">
        <ele>41</ele>
        <time>2013-06-16T19:40:06Z</time>
      </trkpt>
      <trkpt lat="49.9019" lon="2.31442">
        <ele>41</ele>
        <time>2013-06-16T19:40:10Z</time>
      </trkpt>
      <trkpt lat="49.9018" lon="2.31434">
        <ele>41</ele>
        <time>2013-06-16T19:40:13Z</time>
      </trkpt>
      <trkpt lat="49.9017" lon="2.31426">
        <ele>40</ele>
        <time>2013-06-16T19:40:16Z</time>
      </trkpt>
      <trkpt lat="49.9016" lon="2.31419">
        <ele>39</ele>
        <time>2013-06-16T19:40:19Z</time>
      </trkpt>
      <trkpt lat="49.9015" lon="2.31412">
        <ele>38</ele>
        <time>2013-06-16T19:40:21Z</time>
      </trkpt>
      <trkpt lat="49.90139" lon="2.31404">
        <ele>37</ele>
        <time>2013-06-16T19:40:24Z</time>
      </trkpt>
      <trkpt lat="49.90129" lon="2.31394">
        <ele>37</ele>
        <time>2013-06-16T19:40:28Z</time>
      </trkpt>
      <trkpt lat="49.90119" lon="2.31387">
        <ele>36</ele>
        <time>2013-06-16T19:40:31Z</time>
      </trkpt>
      <trkpt lat="49.90108" lon="2.31378">
        <ele>35</ele>
        <time>2013-06-16T19:40:34Z</time>
      </trkpt>
      <trkpt lat="49.90099" lon="2.3137">
        <ele>34</ele>
        <time>2013-06-16T19:40:36Z</time>
      </trkpt>
      <trkpt lat="49.90091" lon="2.31359">
        <ele>34</ele>
        <time>2013-06-16T19:40:39Z</time>
      </trkpt>
      <trkpt lat="49.90093" lon="2.31346">
        <ele>34</ele>
        <time>2013-06-16T19:40:42Z</time>
      </trkpt>
      <trkpt lat="49.90097" lon="2.31326">
        <ele>34</ele>
        <time>2013-06-16T19:40:45Z</time>
      </trkpt>
      <trkpt lat="49.901" lon="2.31313">
        <ele>34</ele>
        <time>2013-06-16T19:40:46Z</time>
      </trkpt>
      <trkpt lat="49.90107" lon="2.31296">
        <ele>34</ele>
        <time>2013-06-16T19:40:49Z</time>
      </trkpt>
      <trkpt lat="49.90118" lon="2.3129">
        <ele>34</ele>
        <time>2013-06-16T19:40:53Z</time>
      </trkpt>
      <trkpt lat="49.90127" lon="2.31298">
        <ele>34</ele>
        <time>2013-06-16T19:40:56Z</time>
      </trkpt>
      <trkpt lat="49.90135" lon="2.31306">
        <ele>35</ele>
        <time>2013-06-16T19:41:02Z</time>
      </trkpt>
    </trkseg>
  </trk>
</gpx>